SondeTracker

Meteorological Radiosondes Database

Operations

Sounding was ended - last measurement: 2022-12-06 14:06:47z

MAP
About Radiosonde

Number: U2420901

Launch Site: Camborne (GB)

Type: RS41

AUX: NO

Frequency: 403.30 MHz

Max Speed: 211 km/h at 35061 m

Average Speed: 38.45 km/h

Max Altitude: 35555 m

Average Ascent Speed: 4.81 m/s

Average Descent Speed: 13.12 m/s

Status: LOST

Status Changes
Launch Site Type AUX Frequency Status Finder Landing Point Description Changes made by
MHz LOST 0, 0 AUTO STATUS: Probably lost in the water [BOT]AUTO-STATUS - 2022-12-06 14:23:33z
APRS Statistics

Received Frames: 694

First Frame [UTC]: 2022-12-06 11:20:44z

Last Frame [UTC]: 2022-12-06 14:06:47z

Receivers: F1IEE-RS, F4HPW, F4IPA, F4RTE-RS, G8OUX-14, KERNO2-14, M1CTK-14, M7CWL-14

Flight Time: 02:46:03 h

Distance From First Measurement: 104.37 km

Nearest City: Kingsbridge (GB) [59.15 km]

Nearest Hunter: Kernow [88.54 km]

Ground Altitude: -123 m

Distance from QTH: 0.00 km

APRS Data
Receiver Number Date/Time [UTC] φ λ Course [°] Speed [km/h] Altitude [m] Description
KERNO2-14U24209012022-12-06 14:06:4749.7809-4.0485225237289Clb=-6.9m/s t=6.8C h=82.6% 403.30MHz Type=RS41-SG batt=2.7V Details on http://radiosondy.info
KERNO2-14U24209012022-12-06 14:06:4149.7811-4.0477125539328Clb=-6.2m/s t=6.5C h=84.3% 403.30MHz Type=RS41-SG Details on http://radiosondy.info
KERNO2-14U24209012022-12-06 14:06:3549.7812-4.0468625541371Clb=-8.2m/s t=6.1C h=85.7% 403.30MHz Type=RS41-SG Details on http://radiosondy.info
KERNO2-14U24209012022-12-06 14:06:2949.7814-4.0459825739415Clb=-6.2m/s t=5.6C h=85.0% 403.30MHz Type=RS41-SG TxOff=7h46m batt=2.7V Details on http://radiosondy.info
KERNO2-14U24209012022-12-06 14:06:2149.7816-4.0448125539463Clb=-5.9m/s t=5.2C h=86.5% 403.30MHz Type=RS41-SG Details on http://radiosondy.info
KERNO2-14U24209012022-12-06 14:06:1549.7817-4.0439425839498Clb=-5.9m/s t=4.8C h=86.6% 403.30MHz Type=RS41-SG Details on http://radiosondy.info
KERNO2-14U24209012022-12-06 14:06:0949.7819-4.0430825737532Clb=-6.0m/s t=4.6C h=85.4% 403.30MHz Type=RS41-SG batt=2.7V Details on http://radiosondy.info
KERNO2-14U24209012022-12-06 14:06:0149.782-4.0419625737580Clb=-5.7m/s t=4.1C h=82.5% 403.30MHz Type=RS41-SG Details on http://radiosondy.info
KERNO2-14U24209012022-12-06 14:05:5549.7822-4.0411525437616Clb=-6.1m/s t=3.9C h=80.5% 403.30MHz Type=RS41-SG Details on http://radiosondy.info
KERNO2-14U24209012022-12-06 14:05:4349.7824-4.0395425735686Clb=-5.9m/s t=3.3C h=82.3% 403.30MHz Type=RS41-SG batt=2.7V Details on http://radiosondy.info
KERNO2-14U24209012022-12-06 14:05:3749.7825-4.0387525933721Clb=-5.9m/s t=3.1C h=82.4% 403.30MHz Type=RS41-SG Details on http://radiosondy.info
KERNO2-14U24209012022-12-06 14:05:3149.7826-4.0379825733755Clb=-5.5m/s t=2.8C h=82.5% 403.30MHz Type=RS41-SG TxOff=7h47m Details on http://radiosondy.info
KERNO2-14U24209012022-12-06 14:05:2549.7827-4.0372325833788Clb=-5.1m/s t=2.5C h=82.8% 403.30MHz Type=RS41-SG batt=2.7V Details on http://radiosondy.info
KERNO2-14U24209012022-12-06 14:05:1949.7829-4.0364825733821Clb=-5.6m/s t=2.2C h=83.1% 403.30MHz Type=RS41-SG Details on http://radiosondy.info
KERNO2-14U24209012022-12-06 14:05:1349.783-4.0357525531854Clb=-5.9m/s t=2.0C h=84.1% 403.30MHz Type=RS41-SG Details on http://radiosondy.info
KERNO2-14U24209012022-12-06 14:05:0749.7831-4.0350326031888Clb=-5.3m/s t=1.8C h=81.3% 403.30MHz Type=RS41-SG batt=2.7V Details on http://radiosondy.info
KERNO2-14U24209012022-12-06 14:05:0149.7832-4.0343226130921Clb=-4.9m/s t=1.5C h=83.0% 403.30MHz Type=RS41-SG Details on http://radiosondy.info
KERNO2-14U24209012022-12-06 14:04:5049.7834-4.0330625828981Clb=-5.5m/s t=1.0C h=86.8% 403.30MHz Type=RS41-SG Details on http://radiosondy.info
KERNO2-14U24209012022-12-06 14:04:4449.7835-4.03242259281014Clb=-5.4m/s t=0.7C h=88.2% 403.30MHz Type=RS41-SG batt=2.7V Details on http://radiosondy.info
KERNO2-14U24209012022-12-06 14:04:3849.7836-4.03182255261047Clb=-5.4m/s t=0.6C h=85.4% 403.30MHz Type=RS41-SG TxOff=7h47m Details on http://radiosondy.info
KERNO2-14U24209012022-12-06 14:04:3249.7837-4.03128254221079Clb=-4.9m/s t=0.5C h=87.1% 403.30MHz Type=RS41-SG Details on http://radiosondy.info
KERNO2-14U24209012022-12-06 14:04:2649.7838-4.03079252201110Clb=-5.1m/s t=0.2C h=89.1% 403.30MHz Type=RS41-SG batt=2.7V Details on http://radiosondy.info
KERNO2-14U24209012022-12-06 14:04:2049.7839-4.03036249171142Clb=-5.4m/s t=0.7C h=77.6% 403.30MHz Type=RS41-SG Details on http://radiosondy.info
KERNO2-14U24209012022-12-06 14:04:1249.784-4.02993243151185Clb=-5.1m/s t=0.9C h=71.3% 403.30MHz Type=RS41-SG Details on http://radiosondy.info
KERNO2-14U24209012022-12-06 14:04:0649.7841-4.02962241151217Clb=-5.3m/s t=0.7C h=73.1% 403.30MHz Type=RS41-SG batt=2.7V Details on http://radiosondy.info
KERNO2-14U24209012022-12-06 14:04:0049.7842-4.02934233151248Clb=-5.5m/s t=0.4C h=76.3% 403.30MHz Type=RS41-SG Details on http://radiosondy.info
KERNO2-14U24209012022-12-06 14:03:5249.7844-4.02901228151291Clb=-5.4m/s t=0.0C h=78.1% 403.30MHz Type=RS41-SG Details on http://radiosondy.info
KERNO2-14U24209012022-12-06 14:03:4649.7846-4.02877219151322Clb=-5.3m/s t=-0.2C h=79.9% 403.30MHz Type=RS41-SG TxOff=7h48m batt=2.7V Details on http://radiosondy.info
KERNO2-14U24209012022-12-06 14:03:4049.7847-4.02856216151355Clb=-5.6m/s t=-0.6C h=81.6% 403.30MHz Type=RS41-SG Details on http://radiosondy.info
KERNO2-14U24209012022-12-06 14:03:3249.785-4.02831213151397Clb=-5.6m/s t=-1.0C h=83.8% 403.30MHz Type=RS41-SG Details on http://radiosondy.info
KERNO2-14U24209012022-12-06 14:03:2649.7851-4.02813209151430Clb=-5.6m/s t=-1.3C h=85.0% 403.30MHz Type=RS41-SG batt=2.7V Details on http://radiosondy.info
KERNO2-14U24209012022-12-06 14:03:2049.7853-4.02797206151463Clb=-5.5m/s t=-1.6C h=86.4% 403.30MHz Type=RS41-SG Details on http://radiosondy.info
KERNO2-14U24209012022-12-06 14:03:1449.7855-4.02782209151496Clb=-5.8m/s t=-1.9C h=88.1% 403.30MHz Type=RS41-SG Details on http://radiosondy.info
KERNO2-14U24209012022-12-06 14:03:0849.7857-4.02766207131531Clb=-5.5m/s t=-2.2C h=89.6% 403.30MHz Type=RS41-SG batt=2.6V Details on http://radiosondy.info
KERNO2-14U24209012022-12-06 14:03:0249.7859-4.02754201151564Clb=-5.3m/s t=-2.5C h=88.3% 403.30MHz Type=RS41-SG Details on http://radiosondy.info
KERNO2-14U24209012022-12-06 14:02:5649.7861-4.02742202131597Clb=-5.2m/s t=-2.8C h=87.9% 403.30MHz Type=RS41-SG TxOff=7h49m Details on http://radiosondy.info
KERNO2-14U24209012022-12-06 14:02:5049.7863-4.02728203131630Clb=-5.8m/s t=-3.1C h=89.2% 403.30MHz Type=RS41-SG batt=2.5V Details on http://radiosondy.info
KERNO2-14U24209012022-12-06 14:02:4449.7864-4.02714209131663Clb=-5.4m/s t=-3.4C h=90.6% 403.30MHz Type=RS41-SG Details on http://radiosondy.info
KERNO2-14U24209012022-12-06 14:02:3849.7866-4.02699219131696Clb=-5.5m/s t=-3.6C h=95.2% 403.30MHz Type=RS41-SG Details on http://radiosondy.info
KERNO2-14U24209012022-12-06 14:02:3249.7867-4.02679221131728Clb=-5.3m/s t=-3.9C h=96.0% 403.30MHz Type=RS41-SG batt=2.5V Details on http://radiosondy.info
KERNO2-14U24209012022-12-06 14:02:2649.7869-4.02659230131760Clb=-4.9m/s t=-4.1C 403.30MHz Type=RS41-SG Details on http://radiosondy.info
KERNO2-14U24209012022-12-06 14:02:2049.787-4.02636230131791Clb=-5.0m/s t=-4.3C 403.30MHz Type=RS41-SG Details on http://radiosondy.info
KERNO2-14U24209012022-12-06 14:02:1449.7871-4.02613231131821Clb=-5.6m/s t=-4.5C 403.30MHz Type=RS41-SG batt=2.5V Details on http://radiosondy.info
KERNO2-14U24209012022-12-06 14:02:0849.7872-4.02586239151854Clb=-5.0m/s t=-4.6C 403.30MHz Type=RS41-SG TxOff=7h50m Details on http://radiosondy.info
KERNO2-14U24209012022-12-06 14:02:0249.7874-4.02559234151886Clb=-5.0m/s t=-4.9C 403.30MHz Type=RS41-SG Details on http://radiosondy.info
KERNO2-14U24209012022-12-06 14:01:5649.7875-4.02534229151917Clb=-5.3m/s t=-5.1C 403.30MHz Type=RS41-SG batt=2.5V Details on http://radiosondy.info
KERNO2-14U24209012022-12-06 14:01:5049.7876-4.0251231151948Clb=-5.3m/s t=-5.3C 403.30MHz Type=RS41-SG Details on http://radiosondy.info
KERNO2-14U24209012022-12-06 14:01:4449.7878-4.02487219131983Clb=-6.0m/s t=-5.5C 403.30MHz Type=RS41-SG Details on http://radiosondy.info
KERNO2-14U24209012022-12-06 14:01:3849.7879-4.0247213132016Clb=-4.7m/s t=-5.8C 403.30MHz Type=RS41-SG batt=2.6V Details on http://radiosondy.info
KERNO2-14U24209012022-12-06 14:01:3249.7881-4.0245619892047Clb=-5.3m/s t=-5.1C h=90.5% 403.30MHz Type=RS41-SG Details on http://radiosondy.info
KERNO2-14U24209012022-12-06 14:01:2649.7882-4.0245318672081Clb=-5.4m/s t=-1.1C h=44.5% 403.30MHz Type=RS41-SG Details on http://radiosondy.info
KERNO2-14U24209012022-12-06 14:01:2049.7884-4.0245217462119Clb=-7.7m/s t=-1.5C h=56.4% 403.30MHz Type=RS41-SG TxOff=7h51m batt=2.6V Details on http://radiosondy.info
KERNO2-14U24209012022-12-06 14:01:1449.7884-4.0245418142158Clb=-5.8m/s t=-1.9C h=59.1% 403.30MHz Type=RS41-SG Details on http://radiosondy.info
KERNO2-14U24209012022-12-06 14:01:0849.7885-4.0245319742192Clb=-5.7m/s t=-2.1C h=64.5% 403.30MHz Type=RS41-SG Details on http://radiosondy.info
KERNO2-14U24209012022-12-06 14:01:0249.7885-4.0245219642226Clb=-5.8m/s t=-2.3C h=68.2% 403.30MHz Type=RS41-SG batt=2.6V Details on http://radiosondy.info
KERNO2-14U24209012022-12-06 14:00:5649.7886-4.0244920242260Clb=-5.6m/s t=-2.4C h=68.2% 403.30MHz Type=RS41-SG Details on http://radiosondy.info
KERNO2-14U24209012022-12-06 14:00:5049.7887-4.0244521662295Clb=-5.5m/s t=-2.5C h=67.3% 403.30MHz Type=RS41-SG Details on http://radiosondy.info
KERNO2-14U24209012022-12-06 14:00:4449.7887-4.0243821472329Clb=-6.1m/s t=-2.6C h=67.0% 403.30MHz Type=RS41-SG batt=2.5V Details on http://radiosondy.info
KERNO2-14U24209012022-12-06 14:00:3849.7888-4.024320372364Clb=-5.7m/s t=-2.8C h=64.7% 403.30MHz Type=RS41-SG Details on http://radiosondy.info
KERNO2-14U24209012022-12-06 14:00:3249.7889-4.0242220592399Clb=-5.5m/s t=-3.0C h=64.7% 403.30MHz Type=RS41-SG TxOff=7h52m Details on http://radiosondy.info
KERNO2-14U24209012022-12-06 14:00:2749.7891-4.02414202112432Clb=-5.8m/s t=-3.3C h=65.1% 403.30MHz Type=RS41-SG batt=2.6V Details on http://radiosondy.info
KERNO2-14U24209012022-12-06 14:00:2549.7892-4.02405199132468Clb=-6.1m/s t=-3.5C h=65.7% 403.30MHz Type=RS41-SG Details on http://radiosondy.info
KERNO2-14U24209012022-12-06 14:00:2349.7894-4.02396198132504Clb=-5.4m/s t=-3.8C h=65.6% 403.30MHz Type=RS41-SG Details on http://radiosondy.info
KERNO2-14U24209012022-12-06 14:00:1649.7896-4.02386197132539Clb=-5.6m/s t=-3.9C h=65.9% 403.30MHz Type=RS41-SG batt=2.6V Details on http://radiosondy.info
KERNO2-14U24209012022-12-06 14:00:0249.7898-4.02378194132573Clb=-5.9m/s t=-4.1C h=64.0% 403.30MHz Type=RS41-SG Details on http://radiosondy.info
KERNO2-14U24209012022-12-06 13:59:5649.79-4.02368199132609Clb=-6.0m/s t=-4.3C h=63.7% 403.30MHz Type=RS41-SG Details on http://radiosondy.info
KERNO2-14U24209012022-12-06 13:59:5049.7901-4.02359196152643Clb=-6.0m/s t=-4.5C h=62.8% 403.30MHz Type=RS41-SG batt=2.5V Details on http://radiosondy.info
KERNO2-14U24209012022-12-06 13:59:4449.7903-4.0235197132679Clb=-5.9m/s t=-4.6C h=62.5% 403.30MHz Type=RS41-SG TxOff=7h52m Details on http://radiosondy.info
KERNO2-14U24209012022-12-06 13:59:3849.7905-4.02342196132714Clb=-5.9m/s t=-4.8C h=63.2% 403.30MHz Type=RS41-SG Details on http://radiosondy.info
KERNO2-14U24209012022-12-06 13:59:3249.7907-4.02336188132750Clb=-5.9m/s t=-5.0C h=62.9% 403.30MHz Type=RS41-SG batt=2.6V Details on http://radiosondy.info
KERNO2-14U24209012022-12-06 13:59:2649.7909-4.02334186132785Clb=-5.7m/s t=-5.2C h=61.0% 403.30MHz Type=RS41-SG Details on http://radiosondy.info
KERNO2-14U24209012022-12-06 13:59:2049.7911-4.02333178132821Clb=-5.9m/s t=-5.3C h=59.4% 403.30MHz Type=RS41-SG Details on http://radiosondy.info
KERNO2-14U24209012022-12-06 13:59:1449.7913-4.02334175112857Clb=-6.1m/s t=-5.6C h=59.1% 403.30MHz Type=RS41-SG batt=2.6V Details on http://radiosondy.info
KERNO2-14U24209012022-12-06 13:59:0849.7914-4.02335177112893Clb=-5.7m/s t=-5.8C h=59.1% 403.30MHz Type=RS41-SG Details on http://radiosondy.info
KERNO2-14U24209012022-12-06 13:59:0249.7916-4.0233419192928Clb=-6.0m/s t=-6.0C h=58.9% 403.30MHz Type=RS41-SG Details on http://radiosondy.info
KERNO2-14U24209012022-12-06 13:58:5649.7918-4.023319092965Clb=-6.5m/s t=-6.2C h=57.8% 403.30MHz Type=RS41-SG TxOff=7h53m batt=2.6V Details on http://radiosondy.info
KERNO2-14U24209012022-12-06 13:58:5049.7919-4.02324202113003Clb=-6.3m/s t=-6.5C h=58.3% 403.30MHz Type=RS41-SG Details on http://radiosondy.info
KERNO2-14U24209012022-12-06 13:58:3449.7923-4.0230519393108Clb=-6.5m/s t=-7.4C h=61.4% 403.30MHz Type=RS41-SG Details on http://radiosondy.info
KERNO2-14U24209012022-12-06 13:58:1849.7927-4.0230914993217Clb=-6.7m/s t=-8.3C h=57.6% 403.30MHz Type=RS41-SG batt=2.6V Details on http://radiosondy.info
KERNO2-14U24209012022-12-06 13:58:0249.793-4.02344132113331Clb=-6.5m/s t=-9.2C h=53.2% 403.30MHz Type=RS41-SG Details on http://radiosondy.info
KERNO2-14U24209012022-12-06 13:57:4649.7934-4.02393126113443Clb=-6.7m/s t=-9.7C h=44.9% 403.30MHz Type=RS41-SG Details on http://radiosondy.info
KERNO2-14U24209012022-12-06 13:57:3049.7937-4.0244513073554Clb=-6.7m/s t=-10.5C h=41.6% 403.30MHz Type=RS41-SG batt=2.6V Details on http://radiosondy.info
KERNO2-14U24209012022-12-06 13:57:1449.7939-4.024812773673Clb=-7.3m/s t=-11.3C h=41.5% 403.30MHz Type=RS41-SG Details on http://radiosondy.info
KERNO2-14U24209012022-12-06 13:56:5849.7941-4.0251413673790Clb=-6.9m/s t=-12.4C h=40.8% 403.30MHz Type=RS41-SG TxOff=7h55m Details on http://radiosondy.info
KERNO2-14U24209012022-12-06 13:56:4249.7943-4.0254913273907Clb=-7.4m/s t=-13.4C h=33.3% 403.30MHz Type=RS41-SG batt=2.6V Details on http://radiosondy.info
KERNO2-14U24209012022-12-06 13:56:2649.7944-4.0258910364023Clb=-7.6m/s t=-14.1C h=23.0% 403.30MHz Type=RS41-SG Details on http://radiosondy.info
KERNO2-14U24209012022-12-06 13:56:1049.7945-4.026186664139Clb=-7.3m/s t=-14.9C h=24.9% 403.30MHz Type=RS41-SG Details on http://radiosondy.info
KERNO2-14U24209012022-12-06 13:55:5249.7943-4.026476174264Clb=-7.5m/s t=-15.7C h=16.0% 403.30MHz Type=RS41-SG batt=2.5V Details on http://radiosondy.info
KERNO2-14U24209012022-12-06 13:55:3649.7942-4.026856594377Clb=-7.0m/s t=-16.6C h=13.1% 403.30MHz Type=RS41-SG Details on http://radiosondy.info
KERNO2-14U24209012022-12-06 13:55:2049.794-4.0273563114490Clb=-6.8m/s t=-16.8C h=8.3% 403.30MHz Type=RS41-SG Details on http://radiosondy.info
KERNO2-14U24209012022-12-06 13:55:0449.7938-4.027995894605Clb=-7.5m/s t=-17.3C h=7.5% 403.30MHz Type=RS41-SG batt=2.6V Details on http://radiosondy.info
F4HPWU24209012022-12-06 13:54:5849.7938-4.028226494656Clb=-7.7m/s t=-17.5C h=6.1% p=-1.0hPa 403.285 MHz Type=RS41-SG ser=U2420901 Radiosonde
KERNO2-14U24209012022-12-06 13:54:4849.7937-4.0285170114723Clb=-7.3m/s t=-18.0C h=7.8% 403.30MHz Type=RS41-SG TxOff=7h57m Details on http://radiosondy.info
KERNO2-14U24209012022-12-06 13:54:3249.7935-4.0291374194840Clb=-7.2m/s t=-18.4C h=4.7% 403.30MHz Type=RS41-SG Details on http://radiosondy.info
F4HPWU24209012022-12-06 13:54:2649.7935-4.0294879174882Clb=-7.0m/s t=-18.6C h=5.3% p=-1.0hPa 403.285 MHz Type=RS41-SG ser=U2420901 Radiosonde
KERNO2-14U24209012022-12-06 13:54:1649.7934-4.0302585224952Clb=-7.5m/s t=-18.7C h=8.1% 403.30MHz Type=RS41-SG batt=2.6V Details on http://radiosondy.info
KERNO2-14U24209012022-12-06 13:54:0049.7934-4.0316498205072Clb=-7.3m/s t=-19.3C h=10.0% 403.30MHz Type=RS41-SG Details on http://radiosondy.info
F4HPWU24209012022-12-06 13:53:5549.7934-4.0320496205108Clb=-7.2m/s t=-19.7C h=9.8% p=-1.0hPa 403.285 MHz Type=RS41-SG ser=U2420901 Radiosonde
KERNO2-14U24209012022-12-06 13:53:4249.7935-4.03303106195205Clb=-7.8m/s t=-20.5C h=10.6% 403.30MHz Type=RS41-SG Details on http://radiosondy.info
KERNO2-14U24209012022-12-06 13:53:2649.7937-4.03413110205325Clb=-6.8m/s t=-21.5C h=10.8% 403.30MHz Type=RS41-SG batt=2.6V Details on http://radiosondy.info
F4HPWU24209012022-12-06 13:53:2449.7938-4.03426113195338Clb=-8.1m/s t=-21.7C h=10.5% p=-1.0hPa 403.285 MHz Type=RS41-SG ser=U2420901 Radiosonde
KERNO2-14U24209012022-12-06 13:53:1049.7941-4.03525119245446Clb=-7.4m/s t=-22.5C h=18.2% 403.30MHz Type=RS41-SG Details on http://radiosondy.info
KERNO2-14U24209012022-12-06 13:52:5449.7945-4.03657116285572Clb=-8.3m/s t=-23.5C h=16.8% 403.30MHz Type=RS41-SG Details on http://radiosondy.info
F4HPWU24209012022-12-06 13:52:5349.7946-4.03667116265580Clb=-8.5m/s t=-23.6C h=16.1% p=-1.0hPa 403.285 MHz Type=RS41-SG ser=U2420901 Radiosonde
KERNO2-14U24209012022-12-06 13:52:3849.7951-4.03811119315703Clb=-8.5m/s t=-24.7C h=18.1% 403.30MHz Type=RS41-SG TxOff=7h59m batt=2.6V Details on http://radiosondy.info
F4HPWU24209012022-12-06 13:52:2249.7957-4.03984115335834Clb=-8.6m/s t=-26.0C h=21.8% p=-1.0hPa 403.285 MHz Type=RS41-SG ser=U2420901 Radiosonde
KERNO2-14U24209012022-12-06 13:52:0649.7962-4.04184106415958Clb=-8.3m/s t=-27.0C h=30.8% 403.30MHz Type=RS41-SG Details on http://radiosondy.info
F4HPWU24209012022-12-06 13:51:5149.7963-4.0441688416070Clb=-7.3m/s t=-27.5C h=45.5% p=-1.0hPa 403.285 MHz Type=RS41-SG ser=U2420901 Radiosonde
KERNO2-14U24209012022-12-06 13:51:5049.7963-4.0443288446078Clb=-7.5m/s t=-27.5C h=47.4% 403.30MHz Type=RS41-SG TxOff=8h00m batt=2.6V Details on http://radiosondy.info
KERNO2-14U24209012022-12-06 13:51:3449.7962-4.0470588446204Clb=-7.7m/s t=-28.4C h=50.3% 403.30MHz Type=RS41-SG Details on http://radiosondy.info
F4HPWU24209012022-12-06 13:51:2049.7961-4.0494983446311Clb=-8.6m/s t=-29.1C h=46.2% p=-1.0hPa 403.285 MHz Type=RS41-SG ser=U2420901 Radiosonde
KERNO2-14U24209012022-12-06 13:51:1849.796-4.0498487446327Clb=-7.8m/s t=-29.1C h=50.3% 403.30MHz Type=RS41-SG Details on http://radiosondy.info
KERNO2-14U24209012022-12-06 13:51:0249.7959-4.0526286436454Clb=-7.9m/s t=-30.3C h=55.8% 403.30MHz Type=RS41-SG batt=2.4V Details on http://radiosondy.info
F4HPWU24209012022-12-06 13:50:4949.7958-4.0547990396557Clb=-8.4m/s t=-31.0C h=53.5% p=-1.0hPa 403.285 MHz Type=RS41-SG ser=U2420901 Radiosonde
KERNO2-14U24209012022-12-06 13:50:4649.7958-4.0552591376581Clb=-7.9m/s t=-31.1C h=55.8% 403.30MHz Type=RS41-SG Details on http://radiosondy.info
KERNO2-14U24209012022-12-06 13:50:3049.7959-4.0575593376709Clb=-8.2m/s t=-32.1C h=59.9% 403.30MHz Type=RS41-SG Details on http://radiosondy.info
F4HPWU24209012022-12-06 13:50:1849.796-4.0591994356804Clb=-7.6m/s t=-32.9C h=53.5% p=-1.0hPa 403.285 MHz Type=RS41-SG ser=U2420901 Radiosonde
KERNO2-14U24209012022-12-06 13:50:1249.796-4.06005102436851Clb=-7.7m/s t=-33.1C h=49.8% 403.30MHz Type=RS41-SG batt=2.4V Details on http://radiosondy.info
KERNO2-14U24209012022-12-06 13:49:5649.7964-4.06265109566972Clb=-8.0m/s t=-33.6C h=27.6% 403.30MHz Type=RS41-SG Details on http://radiosondy.info
F4HPWU24209012022-12-06 13:49:4749.7967-4.06436107577043Clb=-8.0m/s t=-33.8C h=25.0% p=-1.0hPa 403.285 MHz Type=RS41-SG ser=U2420901 Radiosonde
KERNO2-14U24209012022-12-06 13:49:4049.7971-4.06593110677099Clb=-8.2m/s t=-34.0C h=35.6% 403.30MHz Type=RS41-SG Details on http://radiosondy.info
KERNO2-14U24209012022-12-06 13:49:2449.7978-4.06994103727235Clb=-8.8m/s t=-35.0C h=50.7% 403.30MHz Type=RS41-SG TxOff=8h03m batt=2.6V Details on http://radiosondy.info
F4HPWU24209012022-12-06 13:49:1649.7981-4.07207103727304Clb=-8.7m/s t=-35.6C h=55.4% p=-1.0hPa 403.285 MHz Type=RS41-SG ser=U2420901 Radiosonde
KERNO2-14U24209012022-12-06 13:49:0849.7984-4.07428102767370Clb=-7.7m/s t=-36.2C h=62.3% 403.30MHz Type=RS41-SG Details on http://radiosondy.info
KERNO2-14U24209012022-12-06 13:48:5249.7988-4.0789295807507Clb=-8.2m/s t=-37.4C h=72.6% 403.30MHz Type=RS41-SG Details on http://radiosondy.info
F4HPWU24209012022-12-06 13:48:4549.7988-4.0810689787567Clb=-8.9m/s t=-38.0C h=71.6% p=-1.0hPa 403.285 MHz Type=RS41-SG ser=U2420901 Radiosonde
KERNO2-14U24209012022-12-06 13:48:3649.7988-4.0838887817648Clb=-9.4m/s t=-38.5C h=80.0% 403.30MHz Type=RS41-SG batt=2.6V Details on http://radiosondy.info
KERNO2-14U24209012022-12-06 13:48:2049.7985-4.0888986807791Clb=-9.2m/s t=-39.6C h=72.9% 403.30MHz Type=RS41-SG Details on http://radiosondy.info
F4HPWU24209012022-12-06 13:48:1449.7984-4.0910784787855Clb=-9.0m/s t=-39.9C h=62.1% p=-1.0hPa 403.285 MHz Type=RS41-SG ser=U2420901 Radiosonde
KERNO2-14U24209012022-12-06 13:48:0449.7983-4.0938187767937Clb=-9.0m/s t=-40.2C h=53.5% 403.30MHz Type=RS41-SG Details on http://radiosondy.info
KERNO2-14U24209012022-12-06 13:47:4849.7982-4.0984791728067Clb=-8.6m/s t=-41.3C h=58.1% 403.30MHz Type=RS41-SG batt=2.6V Details on http://radiosondy.info
F4HPWU24209012022-12-06 13:47:4349.7982-4.1001590708113Clb=-7.4m/s t=-41.8C h=55.3% p=-1.0hPa 403.285 MHz Type=RS41-SG ser=U2420901 Radiosonde
KERNO2-14U24209012022-12-06 13:47:3249.7982-4.1028692698193Clb=-8.4m/s t=-42.4C h=56.0% 403.30MHz Type=RS41-SG Details on http://radiosondy.info
KERNO2-14U24209012022-12-06 13:47:1649.7984-4.107195698326Clb=-8.7m/s t=-43.3C h=46.5% 403.30MHz Type=RS41-SG Details on http://radiosondy.info
F4HPWU24209012022-12-06 13:47:1249.7984-4.1084195678368Clb=-8.3m/s t=-43.6C h=45.1% p=-1.0hPa 403.285 MHz Type=RS41-SG ser=U2420901 Radiosonde
KERNO2-14U24209012022-12-06 13:47:0049.7986-4.1112698708461Clb=-8.5m/s t=-44.2C h=50.1% 403.30MHz Type=RS41-SG TxOff=8h05m batt=2.6V Details on http://radiosondy.info
KERNO2-14U24209012022-12-06 13:46:4449.7989-4.115696768595Clb=-8.2m/s t=-45.1C h=55.8% 403.30MHz Type=RS41-SG Details on http://radiosondy.info
F4HPWU24209012022-12-06 13:46:4149.7989-4.1167393728628Clb=-8.7m/s t=-45.3C h=50.6% p=-1.0hPa 403.285 MHz Type=RS41-SG ser=U2420901 Radiosonde
KERNO2-14U24209012022-12-06 13:46:2849.799-4.1202393808732Clb=-8.6m/s t=-46.1C h=54.5% 403.30MHz Type=RS41-SG Details on http://radiosondy.info
KERNO2-14U24209012022-12-06 13:46:1249.7991-4.1251991838871Clb=-8.5m/s t=-47.2C h=56.0% 403.30MHz Type=RS41-SG batt=2.4V Details on http://radiosondy.info
F4HPWU24209012022-12-06 13:46:0949.7991-4.1261589818896Clb=-8.9m/s t=-47.4C h=51.0% p=-1.0hPa 403.285 MHz Type=RS41-SG ser=U2420901 Radiosonde
KERNO2-14U24209012022-12-06 13:45:5649.799-4.1303488859010Clb=-9.0m/s t=-48.1C h=57.4% 403.30MHz Type=RS41-SG Details on http://radiosondy.info
KERNO2-14U24209012022-12-06 13:45:4049.7987-4.1356284879154Clb=-9.2m/s t=-49.2C h=64.9% 403.30MHz Type=RS41-SG Details on http://radiosondy.info
F4HPWU24209012022-12-06 13:45:3949.7986-4.1366283879181Clb=-9.5m/s t=-49.6C h=60.5% p=-1.0hPa 403.285 MHz Type=RS41-SG ser=U2420901 Radiosonde
KERNO2-14U24209012022-12-06 13:45:2449.7982-4.1409482879299Clb=-9.2m/s t=-50.6C h=66.6% 403.30MHz Type=RS41-SG batt=2.6V Details on http://radiosondy.info
KERNO2-14U24209012022-12-06 13:45:0849.7978-4.1462784839443Clb=-9.1m/s t=-51.8C h=54.5% 403.30MHz Type=RS41-SG Details on http://radiosondy.info
F4HPWU24209012022-12-06 13:45:0749.7977-4.146683859452Clb=-9.1m/s t=-52.0C h=48.1% p=-1.0hPa 403.285 MHz Type=RS41-SG ser=U2420901 Radiosonde
KERNO2-14U24209012022-12-06 13:44:5249.7974-4.1513585819588Clb=-9.5m/s t=-52.7C h=35.6% 403.30MHz Type=RS41-SG Details on http://radiosondy.info
F4HPWU24209012022-12-06 13:44:3749.797-4.1564183859734Clb=-9.8m/s t=-273.0C h=-1.0% p=-1.0hPa 403.285 MHz Type=RS41 ser=U2420901 Radiosonde
KERNO2-14U24209012022-12-06 13:44:2049.7966-4.1617386789883Clb=-9.3m/s t=-54.6C h=31.3% 403.30MHz Type=RS41-SG Details on http://radiosondy.info
KERNO2-14U24209012022-12-06 13:44:0449.7964-4.16645886710027Clb=-9.2m/s t=-55.0C h=31.4% 403.30MHz Type=RS41-SG Details on http://radiosondy.info
KERNO2-14U24209012022-12-06 13:43:4849.7962-4.17053866510178Clb=-9.7m/s t=-56.0C h=32.3% 403.30MHz Type=RS41-SG batt=2.4V Details on http://radiosondy.info
KERNO2-14U24209012022-12-06 13:43:3249.7959-4.17448816310329Clb=-9.2m/s t=-56.2C h=18.5% 403.30MHz Type=RS41-SG Details on http://radiosondy.info
KERNO2-14U24209012022-12-06 13:43:1649.7954-4.17831806110478Clb=-9.7m/s t=-56.6C h=20.0% 403.30MHz Type=RS41-SG Details on http://radiosondy.info
KERNO2-14U24209012022-12-06 13:43:0049.7949-4.18202796310630Clb=-9.1m/s t=-55.7C h=24.5% 403.30MHz Type=RS41-SG batt=2.6V Details on http://radiosondy.info
KERNO2-14U24209012022-12-06 13:42:4249.7945-4.18628845410800Clb=-9.9m/s t=-56.5C h=22.9% 403.30MHz Type=RS41-SG Details on http://radiosondy.info
KERNO2-14U24209012022-12-06 13:42:2649.7942-4.18949885410956Clb=-9.7m/s t=-56.7C h=20.9% 403.30MHz Type=RS41-SG Details on http://radiosondy.info
KERNO2-14U24209012022-12-06 13:42:1049.794-4.19284846311114Clb=-10.5m/s t=-57.0C h=18.6% 403.30MHz Type=RS41-SG TxOff=8h10m batt=2.4V Details on http://radiosondy.info
KERNO2-14U24209012022-12-06 13:41:5449.7938-4.19669936311273Clb=-10.0m/s t=-57.0C h=14.6% 403.30MHz Type=RS41-SG Details on http://radiosondy.info
KERNO2-14U24209012022-12-06 13:41:3849.7943-4.200461095911432Clb=-10.0m/s t=-56.5C h=10.5% 403.30MHz Type=RS41-SG Details on http://radiosondy.info
KERNO2-14U24209012022-12-06 13:41:2249.7952-4.203791165411593Clb=-9.8m/s t=-58.0C h=9.3% 403.30MHz Type=RS41-SG batt=2.6V Details on http://radiosondy.info
KERNO2-14U24209012022-12-06 13:41:0749.7959-4.206881054611759Clb=-10.6m/s t=-58.7C h=8.3% 403.30MHz Type=RS41-SG Details on http://radiosondy.info
KERNO2-14U24209012022-12-06 13:40:5049.7963-4.209661014811923Clb=-10.8m/s t=-58.5C h=7.2% 403.30MHz Type=RS41-SG Details on http://radiosondy.info
KERNO2-14U24209012022-12-06 13:40:3449.7965-4.21259934812093Clb=-10.5m/s t=-58.5C h=6.6% 403.30MHz Type=RS41-SG batt=2.4V Details on http://radiosondy.info
KERNO2-14U24209012022-12-06 13:40:2149.7968-4.215511084112261Clb=-10.3m/s t=-57.5C h=5.5% 403.30MHz Type=RS41-SG Details on http://radiosondy.info
KERNO2-14U24209012022-12-06 13:40:0249.7974-4.217831134112431Clb=-11.1m/s t=-57.2C h=5.2% 403.30MHz Type=RS41-SG Details on http://radiosondy.info
KERNO2-14U24209012022-12-06 13:39:4649.798-4.220311084812607Clb=-11.7m/s t=-56.5C h=4.8% 403.30MHz Type=RS41-SG TxOff=8h12m batt=2.6V Details on http://radiosondy.info
KERNO2-14U24209012022-12-06 13:39:3049.7985-4.223191073712784Clb=-11.0m/s t=-56.7C h=4.8% 403.30MHz Type=RS41-SG Details on http://radiosondy.info
KERNO2-14U24209012022-12-06 13:39:1249.7991-4.225611193112982Clb=-11.4m/s t=-56.6C h=4.7% 403.30MHz Type=RS41-SG Details on http://radiosondy.info
KERNO2-14U24209012022-12-06 13:38:5649.7996-4.227391062613163Clb=-11.5m/s t=-57.2C h=4.7% 403.30MHz Type=RS41-SG batt=2.6V Details on http://radiosondy.info
KERNO2-14U24209012022-12-06 13:38:4049.7998-4.22901993113347Clb=-11.8m/s t=-57.7C h=4.9% 403.30MHz Type=RS41-SG Details on http://radiosondy.info
KERNO2-14U24209012022-12-06 13:38:2449.8-4.230971093913533Clb=-12.0m/s t=-57.4C h=4.8% 403.30MHz Type=RS41-SG Details on http://radiosondy.info
KERNO2-14U24209012022-12-06 13:38:0849.8005-4.233211104313720Clb=-12.4m/s t=-56.5C h=4.4% 403.30MHz Type=RS41-SG batt=2.5V Details on http://radiosondy.info
F4RTE-RSU24209012022-12-06 13:38:0049.8009-4.235171073913874Clb=-12.1m/s t=-56.6C h=1.6% p=-1.0hPa 403.301 MHz Type=RS41-SG Radiosonde auto_rx v1.5.8
KERNO2-14U24209012022-12-06 13:37:5249.801-4.23561093513910Clb=-12.0m/s t=-56.6C h=4.3% 403.30MHz Type=RS41-SG Details on http://radiosondy.info
KERNO2-14U24209012022-12-06 13:37:3649.8017-4.237451253114102Clb=-12.0m/s t=-57.5C h=4.5% 403.30MHz Type=RS41-SG Details on http://radiosondy.info
F4RTE-RSU24209012022-12-06 13:37:3049.8019-4.238261123114196Clb=-12.6m/s t=-58.1C h=1.6% p=-1.0hPa 403.301 MHz Type=RS41-SG Radiosonde auto_rx v1.5.8
KERNO2-14U24209012022-12-06 13:37:2049.8021-4.239231043514294Clb=-12.3m/s t=-57.6C h=4.5% 403.30MHz Type=RS41-SG TxOff=8h15m batt=2.6V Details on http://radiosondy.info
KERNO2-14U24209012022-12-06 13:37:0449.8024-4.241321084114491Clb=-12.9m/s t=-57.3C h=4.5% 403.30MHz Type=RS41-SG Details on http://radiosondy.info
F4RTE-RSU24209012022-12-06 13:37:0049.8027-4.242431143914589Clb=-12.8m/s t=-56.7C h=1.4% p=-1.0hPa 403.301 MHz Type=RS41-SG Radiosonde auto_rx v1.5.8
KERNO2-14U24209012022-12-06 13:36:4849.8031-4.243641194414690Clb=-13.0m/s t=-56.8C h=4.2% 403.30MHz Type=RS41-SG Details on http://radiosondy.info
KERNO2-14U24209012022-12-06 13:36:3249.8039-4.246031193514891Clb=-12.8m/s t=-57.5C h=4.4% 403.30MHz Type=RS41-SG batt=2.5V Details on http://radiosondy.info
F1IEE-RSU24209012022-12-06 13:36:3149.804-4.246161174114904Clb=-13.2m/s t=-57.6C h=1.4% p=-1.0hPa 403.300 MHz Type=RS41-SG ser=U2420901 Radiosonde
F4RTE-RSU24209012022-12-06 13:36:3049.8041-4.246431183714929Clb=-12.8m/s t=-57.6C h=1.4% p=-1.0hPa 403.301 MHz Type=RS41-SG Radiosonde auto_rx v1.5.8
KERNO2-14U24209012022-12-06 13:36:1649.8046-4.247711222215093Clb=-13.1m/s t=-57.3C h=4.2% 403.30MHz Type=RS41-SG Details on http://radiosondy.info
F4IPAU24209012022-12-06 13:36:0649.8049-4.248431182015223Clb=-14.2m/s t=-58.1C h=1.4% p=-1.0hPa 403.300 MHz Type=RS41-SG ser=U2420901 Radiosonde
KERNO2-14U24209012022-12-06 13:36:0149.805-4.248881122615304Clb=-13.4m/s t=-58.1C h=4.5% 403.30MHz Type=RS41-SG Details on http://radiosondy.info
F4RTE-RSU24209012022-12-06 13:36:0049.805-4.248961062215317Clb=-14.0m/s t=-58.3C h=1.4% p=-1.0hPa 403.301 MHz Type=RS41-SG Radiosonde auto_rx v1.5.8
KERNO2-14U24209012022-12-06 13:35:4249.8054-4.250431192815548Clb=-14.1m/s t=-58.1C h=4.6% 403.30MHz Type=RS41-SG batt=2.6V Details on http://radiosondy.info
F4IPAU24209012022-12-06 13:35:3549.8056-4.250971242815645Clb=-14.4m/s t=-57.8C h=1.3% p=-1.0hPa 403.300 MHz Type=RS41-SG ser=U2420901 Radiosonde
F4RTE-RSU24209012022-12-06 13:35:3049.8059-4.251521223015730Clb=-14.3m/s t=-57.0C h=1.2% p=-1.0hPa 403.301 MHz Type=RS41-SG Radiosonde auto_rx v1.5.8
KERNO2-14U24209012022-12-06 13:35:2649.806-4.251811293015773Clb=-14.0m/s t=-56.7C h=4.0% 403.30MHz Type=RS41-SG Details on http://radiosondy.info
KERNO2-14U24209012022-12-06 13:35:1049.807-4.252871612615994Clb=-14.4m/s t=-57.4C h=4.2% 403.30MHz Type=RS41-SG Details on http://radiosondy.info
F4IPAU24209012022-12-06 13:35:0449.8074-4.253081632616080Clb=-14.6m/s t=-58.0C h=1.3% p=-1.0hPa 403.300 MHz Type=RS41-SG ser=U2420901 Radiosonde
F4RTE-RSU24209012022-12-06 13:35:0049.8077-4.253221642016152Clb=-15.3m/s t=-57.9C h=1.2% p=-1.0hPa 403.301 MHz Type=RS41-SG Radiosonde auto_rx v1.5.8
KERNO2-14U24209012022-12-06 13:34:5249.8081-4.253411582416256Clb=-14.7m/s t=-58.1C h=4.5% 403.30MHz Type=RS41-SG TxOff=8h17m batt=2.5V Details on http://radiosondy.info
KERNO2-14U24209012022-12-06 13:34:3649.8088-4.254161292016488Clb=-15.4m/s t=-57.9C h=4.3% 403.30MHz Type=RS41-SG Details on http://radiosondy.info
F4IPAU24209012022-12-06 13:34:3349.8089-4.254381291716548Clb=-14.9m/s t=-273.0C h=-1.0% p=-1.0hPa 403.300 MHz Type=RS41-SG ser=U2420901 Radiosonde
F4RTE-RSU24209012022-12-06 13:34:3049.809-4.254551262016593Clb=-15.1m/s t=-58.0C h=1.1% p=-1.0hPa 403.301 MHz Type=RS41-SG Radiosonde auto_rx v1.5.8
KERNO2-14U24209012022-12-06 13:34:2049.8092-4.255161162216727Clb=-14.9m/s t=-58.5C h=4.4% 403.30MHz Type=RS41-SG Details on http://radiosondy.info
KERNO2-14U24209012022-12-06 13:34:0249.8098-4.256341501916996Clb=-15.5m/s t=-58.1C h=4.2% 403.30MHz Type=RS41-SG batt=2.6V Details on http://radiosondy.info
F4RTE-RSU24209012022-12-06 13:34:0049.8099-4.256431551917041Clb=-15.9m/s t=-58.5C h=1.2% p=-1.0hPa 403.301 MHz Type=RS41-SG Radiosonde auto_rx v1.5.8
KERNO2-14U24209012022-12-06 13:33:4649.8105-4.256721591517240Clb=-16.0m/s t=-58.9C h=4.4% 403.30MHz Type=RS41-SG Details on http://radiosondy.info
KERNO2-14U24209012022-12-06 13:33:3149.8111-4.25691711317489Clb=-15.5m/s t=-59.5C h=4.6% 403.30MHz Type=RS41-SG Details on http://radiosondy.info
F4RTE-RSU24209012022-12-06 13:33:3049.8111-4.256911701317504Clb=-16.0m/s t=-59.5C h=1.2% p=-1.0hPa 403.301 MHz Type=RS41-SG Radiosonde auto_rx v1.5.8
KERNO2-14U24209012022-12-06 13:33:1449.8115-4.257181721317744Clb=-16.9m/s t=-59.9C h=4.6% 403.30MHz Type=RS41-SG batt=2.5V Details on http://radiosondy.info
F4RTE-RSU24209012022-12-06 13:33:0049.812-4.257161631117994Clb=-17.2m/s t=-60.3C h=1.2% p=-1.0hPa 403.301 MHz Type=RS41-SG Radiosonde auto_rx v1.5.8
KERNO2-14U24209012022-12-06 13:32:5849.812-4.257171642218011Clb=-17.2m/s t=-60.3C h=4.6% 403.30MHz Type=RS41-SG Details on http://radiosondy.info
F1IEE-RSU24209012022-12-06 13:32:5449.8127-4.257481632818235Clb=-17.7m/s t=-60.7C h=1.2% p=-1.0hPa 403.300 MHz Type=RS41-SG ser=U2420901 Radiosonde
KERNO2-14U24209012022-12-06 13:32:4249.8129-4.257561622818286Clb=-18.3m/s t=-60.7C h=5.1% 403.30MHz Type=RS41-SG Details on http://radiosondy.info
F4RTE-RSU24209012022-12-06 13:32:3049.8139-4.258181602618547Clb=-17.7m/s t=-58.7C h=1.2% p=-1.0hPa 403.301 MHz Type=RS41-SG Radiosonde auto_rx v1.5.8
KERNO2-14U24209012022-12-06 13:32:2649.8139-4.258211612618564Clb=-18.0m/s t=-58.3C h=4.4% 403.30MHz Type=RS41-SG TxOff=8h20m batt=2.6V Details on http://radiosondy.info
F1IEE-RSU24209012022-12-06 13:32:2349.8142-4.258341652218634Clb=-17.5m/s t=-58.1C h=1.0% p=-1.0hPa 403.300 MHz Type=RS41-SG ser=U2420901 Radiosonde
KERNO2-14U24209012022-12-06 13:32:1049.8149-4.258631644118851Clb=-18.5m/s t=-57.7C h=3.9% 403.30MHz Type=RS41-SG Details on http://radiosondy.info
F4RTE-RSU24209012022-12-06 13:32:0049.816-4.258991743919054Clb=-18.6m/s t=-57.9C h=0.9% p=-1.0hPa 403.301 MHz Type=RS41-SG Radiosonde auto_rx v1.5.8
KERNO2-14U24209012022-12-06 13:31:5449.8166-4.259021804319146Clb=-18.8m/s t=-58.2C h=4.0% 403.30MHz Type=RS41-SG Details on http://radiosondy.info
F1IEE-RSU24209012022-12-06 13:31:5249.8169-4.259011854619203Clb=-19.3m/s t=-58.7C h=1.0% p=-1.0hPa 403.300 MHz Type=RS41-SG ser=U2420901 Radiosonde
KERNO2-14U24209012022-12-06 13:31:3849.8183-4.258811903519448Clb=-19.0m/s t=-59.1C h=4.2% 403.30MHz Type=RS41-SG batt=2.5V Details on http://radiosondy.info
F4RTE-RSU24209012022-12-06 13:31:3049.8191-4.258651853319622Clb=-19.7m/s t=-59.5C h=1.0% p=-1.0hPa 403.301 MHz Type=RS41-SG Radiosonde auto_rx v1.5.8
KERNO2-14U24209012022-12-06 13:31:2249.8197-4.25861752419758Clb=-19.5m/s t=-59.9C h=4.4% 403.30MHz Type=RS41-SG Details on http://radiosondy.info
F1IEE-RSU24209012022-12-06 13:31:2149.8198-4.258641703019796Clb=-19.8m/s t=-60.0C h=1.0% p=-1.0hPa 403.300 MHz Type=RS41-SG ser=U2420901 Radiosonde
KERNO2-14U24209012022-12-06 13:31:0649.8205-4.258961732220070Clb=-20.4m/s t=-60.2C h=4.6% 403.30MHz Type=RS41-SG Details on http://radiosondy.info
F4RTE-RSU24209012022-12-06 13:31:0049.821-4.258891952420209Clb=-20.4m/s t=-60.5C h=1.0% p=-1.0hPa 403.301 MHz Type=RS41-SG Radiosonde auto_rx v1.5.8
F4IPAU24209012022-12-06 13:30:5649.8214-4.258522112220393Clb=-21.1m/s t=-60.3C h=1.0% p=-1.0hPa 403.300 MHz Type=RS41-SG ser=U2420901 Radiosonde
KERNO2-14U24209012022-12-06 13:30:5049.8214-4.258522121320393Clb=-21.0m/s t=-60.3C h=4.5% 403.30MHz Type=RS41-SG batt=2.6V Details on http://radiosondy.info
KERNO2-14U24209012022-12-06 13:30:3249.8218-4.25785271620764Clb=-21.9m/s t=-61.0C h=4.9% 403.30MHz Type=RS41-SG Details on http://radiosondy.info
F4RTE-RSU24209012022-12-06 13:30:3049.8218-4.25774276620847Clb=-21.1m/s t=-61.3C h=1.2% p=-1.0hPa 403.301 MHz Type=RS41-SG Radiosonde auto_rx v1.5.8
F4IPAU24209012022-12-06 13:30:2549.8218-4.25769179220932Clb=-21.6m/s t=-60.8C h=-1.0% p=-1.0hPa 403.300 MHz Type=RS41-SG ser=U2420901 Radiosonde
KERNO2-14U24209012022-12-06 13:30:1749.8219-4.257861241721103Clb=-21.8m/s t=-60.1C h=4.3% 403.30MHz Type=RS41-SG Details on http://radiosondy.info
KERNO2-14U24209012022-12-06 13:30:0449.8222-4.258611341721450Clb=-22.5m/s t=-61.1C h=4.7% 403.30MHz Type=RS41-SG TxOff=8h22m batt=2.6V Details on http://radiosondy.info
F4RTE-RSU24209012022-12-06 13:30:0049.8223-4.25863129721472Clb=-22.1m/s t=-61.3C h=1.0% p=-1.0hPa 403.301 MHz Type=RS41-SG Radiosonde auto_rx v1.5.8
F4IPAU24209012022-12-06 13:29:5449.8224-4.25891311721605Clb=-22.0m/s t=-61.7C h=-1.0% p=-1.0hPa 403.300 MHz Type=RS41 ser=U2420901 Radiosonde
KERNO2-14U24209012022-12-06 13:29:4249.8227-4.259431393321845Clb=-23.2m/s t=-61.6C h=5.0% 403.30MHz Type=RS41-SG Details on http://radiosondy.info
F4RTE-RSU24209012022-12-06 13:29:3049.8237-4.26081434822187Clb=-23.4m/s t=-61.1C h=1.0% p=-1.0hPa 403.301 MHz Type=RS41-SG Radiosonde auto_rx v1.5.8
KERNO2-14U24209012022-12-06 13:29:2749.8238-4.260911464322210Clb=-22.7m/s t=-61.2C h=4.6% 403.30MHz Type=RS41-SG Details on http://radiosondy.info
KERNO2-14U24209012022-12-06 13:29:1049.8252-4.262251473022589Clb=-25.2m/s t=-62.4C h=5.0% 403.30MHz Type=RS41-SG batt=2.5V Details on http://radiosondy.info
F4RTE-RSU24209012022-12-06 13:29:0049.8259-4.262851372222851Clb=-24.2m/s t=-62.8C h=1.1% p=-1.0hPa 403.301 MHz Type=RS41-SG Radiosonde auto_rx v1.5.8
KERNO2-14U24209012022-12-06 13:28:5449.8261-4.263261123022964Clb=-21.0m/s t=-63.1C h=5.2% 403.30MHz Type=RS41-SG Details on http://radiosondy.info
F1IEE-RSU24209012022-12-06 13:28:4649.8267-4.264551523523265Clb=-21.7m/s t=-63.0C h=1.0% p=-1.0hPa 403.300 MHz Type=RS41-SG ser=U2420901 Radiosonde
KERNO2-14U24209012022-12-06 13:28:3849.8268-4.26461583123286Clb=-20.3m/s t=-62.9C h=4.9% 403.30MHz Type=RS41-SG Details on http://radiosondy.info
F4RTE-RSU24209012022-12-06 13:28:3049.8275-4.265061542823466Clb=-21.0m/s t=-63.5C h=1.1% p=-1.0hPa 403.301 MHz Type=RS41-SG Radiosonde auto_rx v1.5.8
KERNO2-14U24209012022-12-06 13:28:2249.8279-4.265451382423607Clb=-20.9m/s t=-64.1C h=5.5% 403.30MHz Type=RS41-SG batt=2.5V Details on http://radiosondy.info
F1IEE-RSU24209012022-12-06 13:28:1649.8283-4.265921472023789Clb=-20.6m/s t=-64.6C h=1.2% p=-1.0hPa 403.300 MHz Type=RS41-SG ser=U2420901 Radiosonde
KERNO2-14U24209012022-12-06 13:28:0649.8287-4.266231523023934Clb=-20.6m/s t=-63.4C h=5.2% 403.30MHz Type=RS41-SG Details on http://radiosondy.info
F4RTE-RSU24209012022-12-06 13:28:0049.8291-4.266591453124080Clb=-22.1m/s t=-63.4C h=1.1% p=-1.0hPa 403.301 MHz Type=RS41-SG Radiosonde auto_rx v1.5.8
KERNO2-14U24209012022-12-06 13:27:5049.8296-4.267331363324275Clb=-22.0m/s t=-63.8C h=5.3% 403.30MHz Type=RS41-SG Details on http://radiosondy.info
F1IEE-RSU24209012022-12-06 13:27:4449.83-4.267811453024427Clb=-22.1m/s t=-63.9C h=1.1% p=-1.0hPa 403.300 MHz Type=RS41-SG ser=U2420901 Radiosonde
KERNO2-14U24209012022-12-06 13:27:3549.8308-4.268381584824623Clb=-22.1m/s t=-63.6C h=5.2% 403.30MHz Type=RS41-SG TxOff=8h25m batt=2.5V Details on http://radiosondy.info
F4RTE-RSU24209012022-12-06 13:27:3049.8313-4.268661624424735Clb=-23.2m/s t=-63.5C h=1.0% p=-1.0hPa 403.301 MHz Type=RS41-SG Radiosonde auto_rx v1.5.8
KERNO2-14U24209012022-12-06 13:27:1849.8326-4.269081715024985Clb=-23.4m/s t=-64.7C h=5.4% 403.30MHz Type=RS41-SG Details on http://radiosondy.info
F1IEE-RSU24209012022-12-06 13:27:1349.8334-4.269251754825124Clb=-23.6m/s t=-64.5C h=1.1% p=-1.0hPa 403.300 MHz Type=RS41-SG ser=U2420901 Radiosonde
M7CWL-14U24209012022-12-06 13:27:1049.8336-4.269291734425171Clb=-24.1m/s t=-64.5C h=5.3% 403.30MHz Type=RS41-SG TxOff=8h25m batt=2.5V Details on http://radiosondy.info
KERNO2-14U24209012022-12-06 13:27:0249.8345-4.269441734125359Clb=-23.7m/s t=-65.0C h=5.4% 403.30MHz Type=RS41-SG Details on http://radiosondy.info
F4RTE-RSU24209012022-12-06 13:27:0049.8348-4.269541653925430Clb=-24.0m/s t=-65.2C h=1.1% p=-1.0hPa 403.301 MHz Type=RS41-SG Radiosonde auto_rx v1.5.8
M7CWL-14U24209012022-12-06 13:26:5549.8352-4.269731604625525Clb=-24.0m/s t=-65.3C h=5.6% 403.30MHz Type=RS41-SG Details on http://radiosondy.info
KERNO2-14U24209012022-12-06 13:26:4649.8361-4.270521466325739Clb=-24.5m/s t=-65.3C h=5.6% 403.30MHz Type=RS41-SG batt=2.5V Details on http://radiosondy.info
F1IEE-RSU24209012022-12-06 13:26:4249.8366-4.271171406125858Clb=-24.2m/s t=-65.5C h=1.2% p=-1.0hPa 403.300 MHz Type=RS41-SG ser=U2420901 Radiosonde
M7CWL-14U24209012022-12-06 13:26:4049.8367-4.271321416925882Clb=-23.9m/s t=-65.4C h=5.6% 403.30MHz Type=RS41-SG Details on http://radiosondy.info
KERNO2-14U24209012022-12-06 13:26:3149.8381-4.272881467026125Clb=-24.7m/s t=-65.5C h=5.8% 403.30MHz Type=RS41-SG Details on http://radiosondy.info
F4RTE-RSU24209012022-12-06 13:26:3049.8383-4.273051447426149Clb=-25.1m/s t=-65.4C h=1.1% p=-1.0hPa 403.301 MHz Type=RS41-SG Radiosonde auto_rx v1.5.8
M7CWL-14U24209012022-12-06 13:26:2549.8389-4.273681469426250Clb=-25.3m/s t=-65.3C h=5.7% 403.30MHz Type=RS41-SG batt=2.6V Details on http://radiosondy.info
KERNO2-14U24209012022-12-06 13:26:1449.8404-4.275361426126528Clb=-26.1m/s t=-65.2C h=5.7% 403.30MHz Type=RS41-SG Details on http://radiosondy.info
F1IEE-RSU24209012022-12-06 13:26:1149.8414-4.276531445926736Clb=-26.2m/s t=-65.1C h=1.1% p=-1.0hPa 403.300 MHz Type=RS41-SG ser=U2420901 Radiosonde
F4RTE-RSU24209012022-12-06 13:26:0049.8423-4.277391455226922Clb=-26.7m/s t=-65.1C h=1.1% p=-1.0hPa 403.301 MHz Type=RS41-SG Radiosonde auto_rx v1.5.8
KERNO2-14U24209012022-12-06 13:25:5849.8424-4.277511465226948Clb=-26.9m/s t=-64.9C h=5.7% 403.30MHz Type=RS41-SG batt=2.5V Details on http://radiosondy.info
KERNO2-14U24209012022-12-06 13:25:4449.8439-4.279481435627383Clb=-27.5m/s t=-63.9C h=5.2% 403.30MHz Type=RS41-SG Details on http://radiosondy.info
F1IEE-RSU24209012022-12-06 13:25:4249.8443-4.279871455627466Clb=-28.0m/s t=-64.0C h=0.9% p=-1.0hPa 403.300 MHz Type=RS41-SG ser=U2420901 Radiosonde
F4RTE-RSU24209012022-12-06 13:25:3049.8455-4.280991565727747Clb=-28.3m/s t=-63.9C h=0.9% p=-1.0hPa 403.301 MHz Type=RS41-SG Radiosonde auto_rx v1.5.8
KERNO2-14U24209012022-12-06 13:25:2849.8459-4.281261606327833Clb=-28.8m/s t=-64.3C h=4.9% 403.30MHz Type=RS41-SG Details on http://radiosondy.info
KERNO2-14U24209012022-12-06 13:25:1149.8483-4.282421655428300Clb=-29.8m/s t=-66.1C h=5.7% 403.30MHz Type=RS41-SG TxOff=8h27m batt=2.5V Details on http://radiosondy.info
F1IEE-RSU24209012022-12-06 13:25:0849.8487-4.282621615428390Clb=-30.0m/s t=-66.4C h=1.2% p=-1.0hPa 403.300 MHz Type=RS41-SG ser=U2420901 Radiosonde
KERNO2-14U24209012022-12-06 13:24:5249.8503-4.284441317228839Clb=-30.8m/s t=-67.0C h=6.6% 403.30MHz Type=RS41-SG Details on http://radiosondy.info
KERNO2-14U24209012022-12-06 13:24:3849.8522-4.287781287029335Clb=-32.3m/s t=-64.8C h=6.0% 403.30MHz Type=RS41-SG Details on http://radiosondy.info
F4RTE-RSU24209012022-12-06 13:24:3049.853-4.289351276929560Clb=-33.0m/s t=-63.5C h=0.9% p=-1.0hPa 403.301 MHz Type=RS41-SG Radiosonde auto_rx v1.5.8
KERNO2-14U24209012022-12-06 13:24:2049.854-4.29111357229858Clb=-34.0m/s t=-63.1C h=4.6% 403.30MHz Type=RS41-SG batt=2.6V Details on http://radiosondy.info
F1IEE-RSU24209012022-12-06 13:24:0849.8559-4.29421277830372Clb=-35.4m/s t=-65.1C h=1.1% p=-1.0hPa 403.300 MHz Type=RS41-SG ser=U2420901 Radiosonde
KERNO2-14U24209012022-12-06 13:24:0649.856-4.294441269130407Clb=-35.4m/s t=-65.2C h=5.5% 403.30MHz Type=RS41-SG Details on http://radiosondy.info
F4RTE-RSU24209012022-12-06 13:24:0049.8569-4.296721179130690Clb=-35.9m/s t=-65.4C h=1.1% p=-1.0hPa 403.301 MHz Type=RS41-SG Radiosonde auto_rx v1.5.8
KERNO2-14U24209012022-12-06 13:23:4849.8578-4.2993511711130982Clb=-37.7m/s t=-65.3C h=5.9% 403.30MHz Type=RS41-SG Details on http://radiosondy.info
F1IEE-RSU24209012022-12-06 13:23:3549.8595-4.3045711911531513Clb=-38.7m/s t=-65.0C h=1.1% p=-1.0hPa 403.300 MHz Type=RS41-SG ser=U2420901 Radiosonde
G8OUX-14U24209012022-12-06 13:23:3349.8596-4.3049512111531551Clb=-38.1m/s calibration 72% 403.30MHz Type=RS41-SG Details on http://radiosondy.info
F4RTE-RSU24209012022-12-06 13:23:3049.8603-4.3065312012031706Clb=-40.6m/s t=-65.0C h=1.0% p=-1.0hPa 403.301 MHz Type=RS41-SG Radiosonde auto_rx v1.5.8
F4RTE-RSU24209012022-12-06 13:23:0049.8637-4.3171810010232947Clb=-44.3m/s t=-63.9C h=1.1% p=-1.0hPa 403.301 MHz Type=RS41-SG Radiosonde auto_rx v1.5.8
F4RTE-RSU24209012022-12-06 13:22:3049.8663-4.3350710317434406Clb=-51.8m/s t=-60.1C h=0.8% p=-1.0hPa 403.301 MHz Type=RS41-SG Radiosonde auto_rx v1.5.8
F4RTE-RSU24209012022-12-06 13:22:0049.8716-4.356213216135555Clb=1.8m/s t=-59.1C h=0.7% p=-1.0hPa 403.301 MHz Type=RS41-SG Radiosonde auto_rx v1.5.8
F4RTE-RSU24209012022-12-06 13:21:3049.8774-4.3752612616935402Clb=0.7m/s t=-58.5C h=0.6% p=-1.0hPa 403.301 MHz Type=RS41-SG Radiosonde auto_rx v1.5.8
F4RTE-RSU24209012022-12-06 13:21:0049.882-4.3942912316935245Clb=1.6m/s t=-58.7C h=0.6% p=-1.0hPa 403.301 MHz Type=RS41-SG Radiosonde auto_rx v1.5.8
F4RTE-RSU24209012022-12-06 13:20:3049.8867-4.419379321135061Clb=-0.3m/s t=-58.5C h=0.6% p=-1.0hPa 403.301 MHz Type=RS41-SG Radiosonde auto_rx v1.5.8
F4RTE-RSU24209012022-12-06 13:20:0049.8923-4.448469118934869Clb=-0.1m/s t=-59.5C h=0.7% p=-1.0hPa 403.301 MHz Type=RS41-SG Radiosonde auto_rx v1.5.8
F4RTE-RSU24209012022-12-06 13:18:0049.9025-4.521219417834345Clb=1.9m/s t=-61.8C h=0.8% p=-1.0hPa 403.301 MHz Type=RS41-SG Radiosonde auto_rx v1.5.8
F4RTE-RSU24209012022-12-06 13:17:3049.906-4.5407111613134126Clb=4.7m/s t=-61.7C h=0.8% p=-1.0hPa 403.301 MHz Type=RS41-SG Radiosonde auto_rx v1.5.8
F4RTE-RSU24209012022-12-06 13:17:0049.9073-4.5474412012634046Clb=6.5m/s t=-61.3C h=0.7% p=-1.0hPa 403.301 MHz Type=RS41-SG Radiosonde auto_rx v1.5.8
F4RTE-RSU24209012022-12-06 13:16:3049.9111-4.5699211614633779Clb=7.4m/s t=-62.6C h=0.9% p=-1.0hPa 403.301 MHz Type=RS41-SG Radiosonde auto_rx v1.5.8
F4RTE-RSU24209012022-12-06 13:16:0049.9132-4.5819715233650Clb=4.8m/s t=-62.8C h=0.9% p=-1.0hPa 403.301 MHz Type=RS41-SG Radiosonde auto_rx v1.5.8
F4RTE-RSU24209012022-12-06 13:15:3049.9166-4.6012111212033424Clb=7.5m/s t=-61.9C h=0.8% p=-1.0hPa 403.301 MHz Type=RS41-SG Radiosonde auto_rx v1.5.8
F4RTE-RSU24209012022-12-06 13:15:0049.919-4.614681219333277Clb=7.0m/s t=-62.0C h=0.8% p=-1.0hPa 403.301 MHz Type=RS41-SG Radiosonde auto_rx v1.5.8
F4RTE-RSU24209012022-12-06 13:14:3049.9207-4.6253710112433156Clb=4.8m/s t=-62.6C h=0.8% p=-1.0hPa 403.301 MHz Type=RS41-SG Radiosonde auto_rx v1.5.8
F4RTE-RSU24209012022-12-06 13:14:0049.9226-4.637419610932994Clb=3.8m/s t=-63.4C h=0.8% p=-1.0hPa 403.301 MHz Type=RS41-SG Radiosonde auto_rx v1.5.8
F4RTE-RSU24209012022-12-06 13:13:3049.9247-4.645921139632857Clb=5.6m/s t=-64.3C h=0.9% p=-1.0hPa 403.301 MHz Type=RS41-SG Radiosonde auto_rx v1.5.8
F4RTE-RSU24209012022-12-06 13:13:0049.9285-4.657971349432675Clb=6.8m/s t=-64.6C h=0.9% p=-1.0hPa 403.301 MHz Type=RS41-SG Radiosonde auto_rx v1.5.8
F4RTE-RSU24209012022-12-06 13:12:3049.9319-4.666513210032548Clb=5.5m/s t=-65.3C h=1.0% p=-1.0hPa 403.301 MHz Type=RS41-SG Radiosonde auto_rx v1.5.8
F4RTE-RSU24209012022-12-06 13:12:0049.9369-4.677241268732375Clb=6.8m/s t=-65.8C h=1.1% p=-1.0hPa 403.301 MHz Type=RS41-SG Radiosonde auto_rx v1.5.8
F4RTE-RSU24209012022-12-06 13:11:3049.9415-4.6866611811532207Clb=5.9m/s t=-66.5C h=1.1% p=-1.0hPa 403.301 MHz Type=RS41-SG Radiosonde auto_rx v1.5.8
F4RTE-RSU24209012022-12-06 13:11:0049.9463-4.6967612111732046Clb=7.6m/s t=-65.7C h=1.0% p=-1.0hPa 403.301 MHz Type=RS41-SG Radiosonde auto_rx v1.5.8
F4RTE-RSU24209012022-12-06 13:10:3049.951-4.7095911512031867Clb=4.6m/s t=-65.0C h=1.0% p=-1.0hPa 403.301 MHz Type=RS41-SG Radiosonde auto_rx v1.5.8
F4RTE-RSU24209012022-12-06 13:10:0049.9552-4.7222311613031693Clb=5.2m/s t=-64.8C h=1.0% p=-1.0hPa 403.301 MHz Type=RS41-SG Radiosonde auto_rx v1.5.8
F4RTE-RSU24209012022-12-06 13:09:3049.9598-4.732471239831520Clb=7.5m/s t=-64.9C h=1.0% p=-1.0hPa 403.301 MHz Type=RS41-SG Radiosonde auto_rx v1.5.8
F4RTE-RSU24209012022-12-06 13:09:0049.9634-4.7434411610631330Clb=4.1m/s t=-64.8C h=-1.0% p=-1.0hPa 403.301 MHz Type=RS41-SG Radiosonde auto_rx v1.5.8
F4RTE-RSU24209012022-12-06 13:08:3049.9663-4.755181089631149Clb=7.6m/s t=-64.5C h=-1.0% p=-1.0hPa 403.301 MHz Type=RS41 Radiosonde auto_rx v1.5.8
F4RTE-RSU24209012022-12-06 13:08:0049.9695-4.764971048530955Clb=7.7m/s t=-273.0C h=-1.0% p=-1.0hPa 403.301 MHz Type=RS41 Radiosonde auto_rx v1.5.8
F4RTE-RSU24209012022-12-06 13:07:3049.972-4.774541139630765Clb=5.6m/s t=-273.0C h=-1.0% p=-1.0hPa 403.301 MHz Type=RS41 Radiosonde auto_rx v1.5.8
M1CTK-14U24209012022-12-06 13:07:2950.0557-4.884521367226714Clb=6.7m/s t=-65.7C h=1.2% p=-1.0hPa 403.300 MHz Type=RS41-SG ser=U2420901 Radiosonde auto_rx v1.5.9
KERNO2-14U24209012022-12-06 13:07:1850.0564-4.885661215926679Clb=5.9m/s t=-65.6C h=5.8% 403.30MHz Type=RS41-SG Details on http://radiosondy.info
F1IEE-RSU24209012022-12-06 13:07:0450.0571-4.886991336526633Clb=7.3m/s t=-65.4C h=1.2% p=-1.0hPa 403.300 MHz Type=RS41-SG ser=U2420901 Radiosonde
KERNO2-14U24209012022-12-06 13:06:5250.0579-4.888381365726586Clb=5.8m/s t=-65.3C h=5.8% 403.30MHz Type=RS41-SG Details on http://radiosondy.info
M1CTK-14U24209012022-12-06 13:06:3950.0588-4.889491476526541Clb=4.5m/s t=-65.2C h=1.1% p=-1.0hPa 403.300 MHz Type=RS41-SG ser=U2420901 Radiosonde auto_rx v1.5.9
KERNO2-14U24209012022-12-06 13:06:2850.0597-4.890671586726494Clb=5.7m/s t=-65.2C h=5.7% 403.30MHz Type=RS41-SG batt=2.6V Details on http://radiosondy.info
F1IEE-RSU24209012022-12-06 13:06:1850.0607-4.891471517026453Clb=6.5m/s t=-65.8C h=1.2% p=-1.0hPa 403.300 MHz Type=RS41-SG ser=U2420901 Radiosonde
KERNO2-14U24209012022-12-06 13:06:0050.0624-4.892731627426392Clb=5.2m/s t=-65.7C h=6.0% 403.30MHz Type=RS41-SG Details on http://radiosondy.info
M1CTK-14U24209012022-12-06 13:05:5550.0631-4.89341346926369Clb=6.8m/s t=-65.8C h=1.2% p=-1.0hPa 403.300 MHz Type=RS41-SG ser=U2420901 Radiosonde auto_rx v1.5.9
KERNO2-14U24209012022-12-06 13:05:3750.0647-4.895151417226302Clb=4.9m/s t=-65.2C h=5.6% 403.30MHz Type=RS41-SG Details on http://radiosondy.info
F1IEE-RSU24209012022-12-06 13:05:3150.0652-4.89571505626279Clb=4.6m/s t=-65.3C h=1.2% p=-1.0hPa 403.300 MHz Type=RS41-SG ser=U2420901 Radiosonde
KERNO2-14U24209012022-12-06 13:05:1450.0669-4.897821417226215Clb=6.1m/s t=-65.2C h=5.8% 403.30MHz Type=RS41-SG batt=2.6V Details on http://radiosondy.info
M1CTK-14U24209012022-12-06 13:05:1250.0672-4.898411326526198Clb=5.6m/s t=-65.4C h=1.2% p=-1.0hPa 403.300 MHz Type=RS41-SG ser=U2420901 Radiosonde auto_rx v1.5.9
M7CWL-14U24209012022-12-06 13:04:5650.0681-4.89971337826160Clb=5.7m/s t=-65.2C h=5.4% 403.30MHz Type=RS41-SG Details on http://radiosondy.info
KERNO2-14U24209012022-12-06 13:04:4850.069-4.900821497226129Clb=4.3m/s t=-65.6C h=5.8% 403.30MHz Type=RS41-SG Details on http://radiosondy.info
F1IEE-RSU24209012022-12-06 13:04:4350.0694-4.901321367426113Clb=5.2m/s t=-65.9C h=1.2% p=-1.0hPa 403.300 MHz Type=RS41-SG ser=U2420901 Radiosonde
M7CWL-14U24209012022-12-06 13:04:3150.0701-4.902521396326080Clb=4.5m/s t=-65.8C h=5.9% 403.30MHz Type=RS41-SG Details on http://radiosondy.info
KERNO2-14U24209012022-12-06 13:04:1950.0711-4.903691515626044Clb=6.8m/s t=-65.7C h=6.0% 403.30MHz Type=RS41-SG Details on http://radiosondy.info
M7CWL-14U24209012022-12-06 13:04:0250.072-4.905071425025998Clb=5.6m/s t=-65.7C h=6.0% 403.30MHz Type=RS41-SG batt=2.6V Details on http://radiosondy.info
KERNO2-14U24209012022-12-06 13:03:5050.0727-4.90591324425960Clb=5.2m/s t=-65.5C h=5.8% 403.30MHz Type=RS41-SG TxPastBurst=8h30m batt=2.6V Details on http://radiosondy.info
F1IEE-RSU24209012022-12-06 13:03:4650.0729-4.906211365625949Clb=5.4m/s t=-65.5C h=1.2% p=-1.0hPa 403.300 MHz Type=RS41-SG ser=U2420901 Radiosonde
M7CWL-14U24209012022-12-06 13:03:3250.0735-4.907011234125910Clb=4.9m/s t=-65.2C h=5.7% 403.30MHz Type=RS41-SG Details on http://radiosondy.info
M1CTK-14U24209012022-12-06 13:03:2350.0738-4.907461434125884Clb=5.0m/s t=-65.2C h=1.2% p=-1.0hPa 403.300 MHz Type=RS41-SG ser=U2420901 Radiosonde auto_rx v1.5.9
KERNO2-14U24209012022-12-06 13:03:2150.074-4.907691373325871Clb=6.1m/s t=-65.2C h=5.7% 403.30MHz Type=RS41-SG Details on http://radiosondy.info
KERNO2-14U24209012022-12-06 13:03:0050.0751-4.908991453525783Clb=5.3m/s t=-65.1C h=5.8% 403.30MHz Type=RS41-SG Details on http://radiosondy.info
F1IEE-RSU24209012022-12-06 13:02:5950.0752-4.909091474125778Clb=4.3m/s t=-65.1C h=1.2% p=-1.0hPa 403.300 MHz Type=RS41-SG ser=U2420901 Radiosonde
M1CTK-14U24209012022-12-06 13:02:4250.076-4.909691663125719Clb=5.6m/s t=-64.8C h=1.1% p=-1.0hPa 403.300 MHz Type=RS41-SG ser=U2420901 Radiosonde auto_rx v1.5.9
KERNO2-14U24209012022-12-06 13:02:3750.0764-4.909841573925699Clb=5.8m/s t=-64.6C h=5.7% 403.30MHz Type=RS41-SG batt=2.6V Details on http://radiosondy.info
F1IEE-RSU24209012022-12-06 13:02:1050.0778-4.910341633925610Clb=6.0m/s t=-64.3C h=1.1% p=-1.0hPa 403.300 MHz Type=RS41-SG ser=U2420901 Radiosonde
M1CTK-14U24209012022-12-06 13:01:5450.0789-4.910561674825557Clb=4.3m/s t=-64.1C h=1.1% p=-1.0hPa 403.300 MHz Type=RS41-SG ser=U2420901 Radiosonde auto_rx v1.5.9
KERNO2-14U24209012022-12-06 13:01:4650.0796-4.910681685025525Clb=6.1m/s t=-63.9C h=5.4% 403.30MHz Type=RS41-SG Details on http://radiosondy.info
F4IPAU24209012022-12-06 13:01:3650.0807-4.910911695625480Clb=6.0m/s t=-273.0C h=-1.0% p=-1.0hPa 403.300 MHz Type=RS41 ser=U2420901 Radiosonde
F1IEE-RSU24209012022-12-06 13:01:2350.0816-4.910991694125440Clb=6.4m/s t=-63.5C h=1.0% p=-1.0hPa 403.300 MHz Type=RS41-SG ser=U2420901 Radiosonde
KERNO2-14U24209012022-12-06 13:01:2150.0816-4.910991704325440Clb=6.4m/s t=-63.5C h=5.2% 403.30MHz Type=RS41-SG batt=2.6V Details on http://radiosondy.info
M1CTK-14U24209012022-12-06 13:01:0450.0825-4.911261794425397Clb=4.9m/s t=-63.6C h=1.0% p=-1.0hPa 403.300 MHz Type=RS41-SG ser=U2420901 Radiosonde auto_rx v1.5.9
KERNO2-14U24209012022-12-06 13:00:5050.0833-4.911421684325353Clb=5.3m/s t=-63.8C h=5.2% 403.30MHz Type=RS41-SG Details on http://radiosondy.info
F1IEE-RSU24209012022-12-06 13:00:2650.0848-4.912051694825271Clb=5.3m/s t=-63.9C h=1.1% p=-1.0hPa 403.300 MHz Type=RS41-SG ser=U2420901 Radiosonde
KERNO2-14U24209012022-12-06 13:00:2150.0849-4.912081725425266Clb=4.4m/s t=-63.9C h=5.3% 403.30MHz Type=RS41-SG Details on http://radiosondy.info
M1CTK-14U24209012022-12-06 13:00:0850.0857-4.912241716325232Clb=6.9m/s t=-64.0C h=1.1% p=-1.0hPa 403.300 MHz Type=RS41-SG ser=U2420901 Radiosonde auto_rx v1.5.9
KERNO2-14U24209012022-12-06 12:59:4650.087-4.91261775225177Clb=5.1m/s t=-63.8C h=5.3% 403.30MHz Type=RS41-SG TxPastBurst=8h30m batt=2.6V Details on http://radiosondy.info
F4IPAU24209012022-12-06 12:59:3450.0881-4.912971635425129Clb=5.5m/s t=-63.8C h=1.1% p=-1.0hPa 403.300 MHz Type=RS41-SG ser=U2420901 Radiosonde
F1IEE-RSU24209012022-12-06 12:59:1850.0888-4.913141775025095Clb=6.6m/s t=-63.8C h=1.1% p=-1.0hPa 403.300 MHz Type=RS41-SG ser=U2420901 Radiosonde
M7CWL-14U24209012022-12-06 12:59:1550.0888-4.913141784825095Clb=6.6m/s t=-63.8C h=5.2% 403.30MHz Type=RS41-SG batt=2.7V Details on http://radiosondy.info
KERNO2-14U24209012022-12-06 12:59:1150.0891-4.913161745425083Clb=5.3m/s t=-63.8C h=5.2% 403.30MHz Type=RS41-SG Details on http://radiosondy.info
M1CTK-14U24209012022-12-06 12:59:0350.0896-4.913361584625058Clb=5.8m/s t=-64.0C h=-1.0% p=-1.0hPa 403.300 MHz Type=RS41 ser=U2420901 Radiosonde auto_rx v1.5.9
KERNO2-14U24209012022-12-06 12:58:3950.0911-4.913851674824987Clb=7.0m/s t=-64.5C h=5.5% 403.30MHz Type=RS41-SG Details on http://radiosondy.info
F4IPAU24209012022-12-06 12:58:2950.0918-4.914041703524950Clb=5.0m/s t=-273.0C h=-1.0% p=-1.0hPa 403.300 MHz Type=RS41-SG ser=U2420901 Radiosonde
M7CWL-14U24209012022-12-06 12:58:2150.0921-4.914171623524932Clb=5.4m/s t=-64.5C h=5.6% 403.30MHz Type=RS41-SG Details on http://radiosondy.info
F1IEE-RSU24209012022-12-06 12:58:1350.0926-4.914481524424908Clb=6.9m/s t=-64.5C h=1.1% p=-1.0hPa 403.300 MHz Type=RS41-SG ser=U2420901 Radiosonde
KERNO2-14U24209012022-12-06 12:58:0650.0928-4.914641494124896Clb=5.8m/s t=-64.4C h=5.6% 403.30MHz Type=RS41-SG batt=2.6V Details on http://radiosondy.info
KERNO2-14U24209012022-12-06 12:57:3550.0942-4.915811403324799Clb=5.4m/s t=-63.7C h=5.4% 403.30MHz Type=RS41-SG Details on http://radiosondy.info
F4IPAU24209012022-12-06 12:57:2350.0946-4.916251503524765Clb=5.0m/s t=-273.0C h=-1.0% p=-1.0hPa 403.300 MHz Type=RS41-SG ser=U2420901 Radiosonde
F1IEE-RSU24209012022-12-06 12:57:1150.095-4.916731473524722Clb=5.9m/s t=-63.3C h=1.1% p=-1.0hPa 403.300 MHz Type=RS41-SG ser=U2420901 Radiosonde
KERNO2-14U24209012022-12-06 12:57:0350.0952-4.916921522824702Clb=6.7m/s t=-63.1C h=5.3% 403.30MHz Type=RS41-SG Details on http://radiosondy.info
KERNO2-14U24209012022-12-06 12:56:3850.0961-4.917991332824610Clb=6.3m/s t=-62.7C h=5.2% 403.30MHz Type=RS41-SG batt=2.6V Details on http://radiosondy.info
F4IPAU24209012022-12-06 12:56:2950.0963-4.91841402824580Clb=7.0m/s t=-273.0C h=-1.0% p=-1.0hPa 403.300 MHz Type=RS41-SG ser=U2420901 Radiosonde
F1IEE-RSU24209012022-12-06 12:56:1650.0967-4.918961292224539Clb=5.8m/s t=-62.7C h=1.0% p=-1.0hPa 403.300 MHz Type=RS41-SG ser=U2420901 Radiosonde
KERNO2-14U24209012022-12-06 12:56:0950.0968-4.919181322824516Clb=5.8m/s t=-62.4C h=5.1% 403.30MHz Type=RS41-SG Details on http://radiosondy.info
KERNO2-14U24209012022-12-06 12:55:4150.0976-4.920521303124423Clb=5.0m/s t=-62.2C h=4.9% 403.30MHz Type=RS41-SG Details on http://radiosondy.info
F4IPAU24209012022-12-06 12:55:3550.0978-4.921131283124394Clb=5.6m/s t=-273.0C h=-1.0% p=-1.0hPa 403.300 MHz Type=RS41-SG ser=U2420901 Radiosonde
F1IEE-RSU24209012022-12-06 12:55:2150.0982-4.921551282224359Clb=6.5m/s t=-62.1C h=1.0% p=-1.0hPa 403.300 MHz Type=RS41-SG ser=U2420901 Radiosonde
KERNO2-14U24209012022-12-06 12:55:0750.0984-4.921931452424331Clb=5.5m/s t=-62.2C h=5.0% 403.30MHz Type=RS41-SG TxPastBurst=8h30m batt=2.6V Details on http://radiosondy.info
KERNO2-14U24209012022-12-06 12:54:4150.0992-4.922641772824240Clb=5.5m/s t=-62.0C h=5.0% 403.30MHz Type=RS41-SG Details on http://radiosondy.info
F1IEE-RSU24209012022-12-06 12:54:2550.1-4.922991522824186Clb=3.6m/s t=-62.0C h=1.0% p=-1.0hPa 403.300 MHz Type=RS41-SG ser=U2420901 Radiosonde
KERNO2-14U24209012022-12-06 12:54:1450.1002-4.92321992024153Clb=6.5m/s t=-61.9C h=5.0% 403.30MHz Type=RS41-SG Details on http://radiosondy.info
M7CWL-14U24209012022-12-06 12:53:5850.1006-4.923651322624106Clb=5.5m/s t=-61.8C h=4.9% 403.30MHz Type=RS41-SG Details on http://radiosondy.info
KERNO2-14U24209012022-12-06 12:53:4650.1008-4.923961202224071Clb=4.9m/s t=-61.8C h=4.9% 403.30MHz Type=RS41-SG batt=2.6V Details on http://radiosondy.info
F1IEE-RSU24209012022-12-06 12:53:3050.1012-4.924661261524024Clb=5.3m/s t=-61.7C h=1.0% p=-1.0hPa 403.300 MHz Type=RS41-SG ser=U2420901 Radiosonde
M7CWL-14U24209012022-12-06 12:53:2950.1012-4.924661271724024Clb=5.2m/s t=-61.6C h=4.8% 403.30MHz Type=RS41-SG TxPastBurst=8h30m batt=2.7V Details on http://radiosondy.info
KERNO2-14U24209012022-12-06 12:53:1850.1014-4.924751461923987Clb=4.7m/s t=-61.4C h=4.7% 403.30MHz Type=RS41-SG Details on http://radiosondy.info
M7CWL-14U24209012022-12-06 12:53:0450.1018-4.925071171923945Clb=5.4m/s t=-62.2C h=4.9% 403.30MHz Type=RS41-SG Details on http://radiosondy.info
KERNO2-14U24209012022-12-06 12:52:4950.102-4.92531552423902Clb=4.7m/s t=-62.1C h=5.0% 403.30MHz Type=RS41-SG Details on http://radiosondy.info
F4IPAU24209012022-12-06 12:52:4750.1023-4.925431771923877Clb=4.1m/s t=-273.0C h=-1.0% p=-1.0hPa 403.300 MHz Type=RS41-SG ser=U2420901 Radiosonde
M7CWL-14U24209012022-12-06 12:52:3650.1024-4.925451542423867Clb=6.6m/s t=-62.2C h=5.0% 403.30MHz Type=RS41-SG Details on http://radiosondy.info
F1IEE-RSU24209012022-12-06 12:52:3550.1025-4.925481441323861Clb=5.1m/s t=-62.1C h=1.0% p=-1.0hPa 403.300 MHz Type=RS41-SG ser=U2420901 Radiosonde
KERNO2-14U24209012022-12-06 12:52:1550.103-4.925681572023820Clb=4.5m/s t=-62.1C h=4.9% 403.30MHz Type=RS41-SG batt=2.6V Details on http://radiosondy.info
KERNO2-14U24209012022-12-06 12:51:4050.1036-4.92611982023743Clb=5.4m/s t=-62.5C h=4.9% 403.30MHz Type=RS41-SG Details on http://radiosondy.info
F1IEE-RSU24209012022-12-06 12:51:2750.1039-4.926611662423708Clb=4.1m/s t=-62.7C h=1.0% p=-1.0hPa 403.300 MHz Type=RS41-SG ser=U2420901 Radiosonde
KERNO2-14U24209012022-12-06 12:51:0950.1043-4.926941552223663Clb=4.4m/s t=-63.2C h=5.3% 403.30MHz Type=RS41-SG Details on http://radiosondy.info
F4IPAU24209012022-12-06 12:50:4450.105-4.927651623323588Clb=4.7m/s t=-273.0C h=-1.0% p=-1.0hPa 403.300 MHz Type=RS41 ser=U2420901 Radiosonde
KERNO2-14U24209012022-12-06 12:50:4150.1051-4.927681702823584Clb=3.9m/s t=-62.6C h=5.2% 403.30MHz Type=RS41-SG TxPastBurst=8h30m batt=2.6V Details on http://radiosondy.info
F1IEE-RSU24209012022-12-06 12:50:3050.1055-4.927821352223555Clb=5.3m/s t=-62.6C h=1.0% p=-1.0hPa 403.300 MHz Type=RS41-SG ser=U2420901 Radiosonde
KERNO2-14U24209012022-12-06 12:50:0350.1062-4.928231683523496Clb=5.6m/s t=-62.3C h=5.0% 403.30MHz Type=RS41-SG Details on http://radiosondy.info
F4IPAU24209012022-12-06 12:49:4050.1072-4.928671724323433Clb=5.4m/s t=-273.0C h=-1.0% p=-1.0hPa 403.300 MHz Type=RS41 ser=U2420901 Radiosonde
KERNO2-14U24209012022-12-06 12:49:3250.1075-4.928771593923419Clb=3.8m/s t=-62.9C h=5.2% 403.30MHz Type=RS41-SG Details on http://radiosondy.info
F1IEE-RSU24209012022-12-06 12:49:2450.1078-4.928941574323404Clb=5.3m/s t=-62.9C h=1.1% p=-1.0hPa 403.300 MHz Type=RS41-SG ser=U2420901 Radiosonde
KERNO2-14U24209012022-12-06 12:48:5550.1089-4.929481752823337Clb=5.4m/s t=-62.9C h=5.2% 403.30MHz Type=RS41-SG batt=2.6V Details on http://radiosondy.info
F4IPAU24209012022-12-06 12:48:3350.1096-4.929991532223284Clb=4.6m/s t=-273.0C h=-1.0% p=-1.0hPa 403.300 MHz Type=RS41 ser=U2420901 Radiosonde
KERNO2-14U24209012022-12-06 12:48:2350.1099-4.930281583023259Clb=5.6m/s t=-62.7C h=5.1% 403.30MHz Type=RS41-SG Details on http://radiosondy.info
F1IEE-RSU24209012022-12-06 12:48:2050.11-4.930341702823248Clb=4.9m/s t=-273.0C h=-1.0% p=-1.0hPa 403.300 MHz Type=RS41-SG ser=U2420901 Radiosonde
M7CWL-14U24209012022-12-06 12:48:0950.1103-4.930491493123229Clb=5.4m/s t=-62.8C h=5.1% 403.30MHz Type=RS41-SG batt=2.6V Details on http://radiosondy.info
KERNO2-14U24209012022-12-06 12:47:4950.1109-4.931121412823177Clb=4.9m/s t=-62.8C h=5.3% 403.30MHz Type=RS41-SG Details on http://radiosondy.info
M7CWL-14U24209012022-12-06 12:47:3850.1112-4.931371632423151Clb=4.7m/s t=-62.8C h=5.3% 403.30MHz Type=RS41-SG Details on http://radiosondy.info
KERNO2-14U24209012022-12-06 12:47:1550.1119-4.931981442623092Clb=3.9m/s t=-62.5C h=5.1% 403.30MHz Type=RS41-SG batt=2.6V Details on http://radiosondy.info
M7CWL-14U24209012022-12-06 12:46:5650.1124-4.932431482023040Clb=5.6m/s t=-62.3C h=5.1% 403.30MHz Type=RS41-SG Details on http://radiosondy.info
KERNO2-14U24209012022-12-06 12:46:4750.1127-4.932671441923007Clb=4.6m/s t=-62.5C h=5.0% 403.30MHz Type=RS41-SG Details on http://radiosondy.info
M7CWL-14U24209012022-12-06 12:46:3050.113-4.932991373722961Clb=4.5m/s t=-62.6C h=5.0% 403.30MHz Type=RS41-SG batt=2.7V Details on http://radiosondy.info
KERNO2-14U24209012022-12-06 12:46:1950.1134-4.933251503122924Clb=5.0m/s t=-62.9C h=5.2% 403.30MHz Type=RS41-SG Details on http://radiosondy.info
KERNO2-14U24209012022-12-06 12:45:4650.1145-4.933941533722839Clb=4.0m/s t=-62.9C h=5.1% 403.30MHz Type=RS41-SG TxPastBurst=8h30m batt=2.6V Details on http://radiosondy.info
KERNO2-14U24209012022-12-06 12:45:1250.1158-4.934981543522753Clb=5.1m/s t=-63.3C h=5.5% 403.30MHz Type=RS41-SG Details on http://radiosondy.info
KERNO2-14U24209012022-12-06 12:44:4050.117-4.936081474322664Clb=6.7m/s t=-62.9C h=5.2% 403.30MHz Type=RS41-SG Details on http://radiosondy.info
KERNO2-14U24209012022-12-06 12:44:0550.1184-4.937331434622582Clb=4.6m/s t=-62.8C h=5.2% 403.30MHz Type=RS41-SG batt=2.6V Details on http://radiosondy.info
KERNO2-14U24209012022-12-06 12:43:5950.1198-4.939141415022498Clb=5.8m/s t=-62.5C h=5.1% 403.30MHz Type=RS41-SG Details on http://radiosondy.info
KERNO2-14U24209012022-12-06 12:43:5250.1214-4.941121375422414Clb=5.5m/s t=-62.2C h=5.0% 403.30MHz Type=RS41-SG Details on http://radiosondy.info
KERNO2-14U24209012022-12-06 12:43:5050.1229-4.943411424622331Clb=3.1m/s t=-62.2C h=5.1% 403.30MHz Type=RS41-SG batt=2.6V Details on http://radiosondy.info
KERNO2-14U24209012022-12-06 12:43:4950.1243-4.945151513722250Clb=3.3m/s t=-61.8C h=5.0% 403.30MHz Type=RS41-SG Details on http://radiosondy.info
M7CWL-14U24209012022-12-06 12:43:4850.1256-4.946411473022166Clb=4.7m/s t=-62.1C h=5.0% 403.30MHz Type=RS41-SG Details on http://radiosondy.info
KERNO2-14U24209012022-12-06 12:43:4750.1257-4.946571272822155Clb=4.8m/s t=-61.9C h=5.0% 403.30MHz Type=RS41-SG Details on http://radiosondy.info
M7CWL-14U24209012022-12-06 12:43:4350.1263-4.947511542422092Clb=3.0m/s t=-61.6C h=4.9% 403.30MHz Type=RS41-SG TxPastBurst=8h30m batt=2.6V Details on http://radiosondy.info
KERNO2-14U24209012022-12-06 12:43:4250.1265-4.947741301922072Clb=4.3m/s t=-61.7C h=5.0% 403.30MHz Type=RS41-SG TxPastBurst=8h30m batt=2.6V Details on http://radiosondy.info
M7CWL-14U24209012022-12-06 12:43:3450.1271-4.948071531722018Clb=4.4m/s t=-61.5C h=4.9% 403.30MHz Type=RS41-SG Details on http://radiosondy.info
KERNO2-14U24209012022-12-06 12:43:3050.1275-4.948421901521957Clb=3.6m/s t=-61.4C h=4.9% 403.30MHz Type=RS41-SG Details on http://radiosondy.info
KERNO2-14U24209012022-12-06 12:43:2150.128-4.948542152021880Clb=4.4m/s t=-61.5C h=4.8% 403.30MHz Type=RS41-SG Details on http://radiosondy.info
KERNO2-14U24209012022-12-06 12:42:4750.1292-4.948251902221732Clb=5.1m/s t=-61.7C h=5.0% 403.30MHz Type=RS41-SG batt=2.7V Details on http://radiosondy.info
KERNO2-14U24209012022-12-06 12:42:2550.1297-4.948521211321666Clb=4.6m/s t=-61.5C h=4.9% 403.30MHz Type=RS41-SG Details on http://radiosondy.info
KERNO2-14U24209012022-12-06 12:42:0150.1302-4.948791451121599Clb=4.0m/s t=-61.5C h=4.9% 403.30MHz Type=RS41-SG Details on http://radiosondy.info
KERNO2-14U24209012022-12-06 12:41:5950.1305-4.948941591321524Clb=4.3m/s t=-61.3C h=4.9% 403.30MHz Type=RS41-SG batt=2.6V Details on http://radiosondy.info
KERNO2-14U24209012022-12-06 12:41:5550.1313-4.94921141521374Clb=3.9m/s t=-60.5C h=4.6% 403.30MHz Type=RS41-SG Details on http://radiosondy.info
M7CWL-14U24209012022-12-06 12:41:5450.1314-4.949281451521363Clb=5.7m/s t=-60.5C h=4.7% 403.30MHz Type=RS41-SG Details on http://radiosondy.info
KERNO2-14U24209012022-12-06 12:41:5350.1318-4.94971241921292Clb=5.5m/s t=-60.3C h=4.6% 403.30MHz Type=RS41-SG Details on http://radiosondy.info
KERNO2-14U24209012022-12-06 12:41:5150.1324-4.949892122221212Clb=3.9m/s t=-59.9C h=4.6% 403.30MHz Type=RS41-SG TxPastBurst=8h30m batt=2.6V Details on http://radiosondy.info
KERNO2-14U24209012022-12-06 12:41:5050.1332-4.949841822421133Clb=4.5m/s t=-59.5C h=4.4% 403.30MHz Type=RS41-SG Details on http://radiosondy.info
KERNO2-14U24209012022-12-06 12:41:4950.1341-4.949521802021053Clb=4.8m/s t=-59.9C h=4.5% 403.30MHz Type=RS41-SG Details on http://radiosondy.info
KERNO2-14U24209012022-12-06 12:41:4850.1348-4.94912112220970Clb=5.9m/s t=-59.8C h=4.5% 403.30MHz Type=RS41-SG batt=2.7V Details on http://radiosondy.info
KERNO2-14U24209012022-12-06 12:41:4650.1357-4.947712032220845Clb=5.6m/s t=-60.1C h=4.6% 403.30MHz Type=RS41-SG Details on http://radiosondy.info
KERNO2-14U24209012022-12-06 12:41:4350.1363-4.946842032220767Clb=3.8m/s t=-60.1C h=4.7% 403.30MHz Type=RS41-SG Details on http://radiosondy.info
KERNO2-14U24209012022-12-06 12:41:3050.137-4.945782032820687Clb=4.7m/s t=-59.5C h=4.5% 403.30MHz Type=RS41-SG batt=2.7V Details on http://radiosondy.info
KERNO2-14U24209012022-12-06 12:41:1250.138-4.945211942820609Clb=8.1m/s t=-59.6C h=4.4% 403.30MHz Type=RS41-SG Details on http://radiosondy.info
KERNO2-14U24209012022-12-06 12:40:5150.1389-4.944472352620528Clb=4.7m/s t=-60.2C h=4.7% 403.30MHz Type=RS41-SG Details on http://radiosondy.info
KERNO2-14U24209012022-12-06 12:40:2450.1397-4.943662223320465Clb=3.6m/s t=-60.1C h=4.6% 403.30MHz Type=RS41-SG TxPastBurst=8h30m batt=2.6V Details on http://radiosondy.info
M7CWL-14U24209012022-12-06 12:40:2350.1397-4.943662223320465Clb=3.6m/s t=-60.1C h=4.6% 403.30MHz Type=RS41-SG batt=2.6V Details on http://radiosondy.info
M7CWL-14U24209012022-12-06 12:39:5350.1408-4.942882213720391Clb=3.8m/s t=-59.8C h=4.5% 403.30MHz Type=RS41-SG Details on http://radiosondy.info
KERNO2-14U24209012022-12-06 12:39:5150.1409-4.94282173320387Clb=3.3m/s t=-59.8C h=4.5% 403.30MHz Type=RS41-SG Details on http://radiosondy.info
M7CWL-14U24209012022-12-06 12:39:2150.1421-4.942241963520321Clb=5.6m/s t=-60.3C h=4.7% 403.30MHz Type=RS41-SG Details on http://radiosondy.info
KERNO2-14U24209012022-12-06 12:39:1850.1422-4.942162073720310Clb=4.4m/s t=-60.3C h=4.8% 403.30MHz Type=RS41-SG Details on http://radiosondy.info
M7CWL-14U24209012022-12-06 12:38:4650.1434-4.941662034120248Clb=5.6m/s t=-60.2C h=4.7% 403.30MHz Type=RS41-SG TxPastBurst=8h30m batt=2.7V Details on http://radiosondy.info
KERNO2-14U24209012022-12-06 12:38:4250.1437-4.941452033720235Clb=4.9m/s t=-60.3C h=4.7% 403.30MHz Type=RS41-SG batt=2.6V Details on http://radiosondy.info
KERNO2-14U24209012022-12-06 12:38:0650.1451-4.9411893120156Clb=5.7m/s t=-60.0C h=4.5% 403.30MHz Type=RS41-SG Details on http://radiosondy.info
KERNO2-14U24209012022-12-06 12:37:2850.1463-4.940791722220077Clb=5.6m/s t=-60.3C h=4.7% 403.30MHz Type=RS41-SG Details on http://radiosondy.info
KERNO2-14U24209012022-12-06 12:36:4950.1472-4.940871672420000Clb=5.2m/s t=-60.1C h=4.6% 403.30MHz Type=RS41-SG batt=2.7V Details on http://radiosondy.info
KERNO2-14U24209012022-12-06 12:36:1550.1481-4.941081753019921Clb=4.2m/s t=-59.8C h=4.5% 403.30MHz Type=RS41-SG Details on http://radiosondy.info
KERNO2-14U24209012022-12-06 12:35:4050.1493-4.941381793919843Clb=5.7m/s t=-59.6C h=4.5% 403.30MHz Type=RS41-SG Details on http://radiosondy.info
KERNO2-14U24209012022-12-06 12:34:5550.1508-4.941631844319764Clb=4.1m/s t=-59.4C h=4.5% 403.30MHz Type=RS41-SG TxPastBurst=8h30m batt=2.7V Details on http://radiosondy.info
KERNO2-14U24209012022-12-06 12:34:0750.1527-4.941871694119681Clb=5.6m/s t=-59.1C h=4.3% 403.30MHz Type=RS41-SG Details on http://radiosondy.info
KERNO2-14U24209012022-12-06 12:33:2950.1543-4.942191693519606Clb=5.4m/s t=-59.2C h=4.4% 403.30MHz Type=RS41-SG Details on http://radiosondy.info
M7CWL-14U24209012022-12-06 12:33:2250.1544-4.942251703519597Clb=3.4m/s t=-59.2C h=4.4% 403.30MHz Type=RS41-SG Details on http://radiosondy.info
KERNO2-14U24209012022-12-06 12:32:2850.1892-4.961231591716793Clb=3.7m/s t=-56.4C h=4.1% 403.30MHz Type=RS41-SG Details on http://radiosondy.info
KERNO2-14U24209012022-12-06 12:31:4850.1898-4.961581851316719Clb=4.1m/s t=-56.3C h=4.0% 403.30MHz Type=RS41-SG batt=2.7V Details on http://radiosondy.info
KERNO2-14U24209012022-12-06 12:31:1250.1902-4.962031651716649Clb=3.8m/s t=-56.2C h=3.9% 403.30MHz Type=RS41-SG Details on http://radiosondy.info
KERNO2-14U24209012022-12-06 12:30:3150.1907-4.962561151316580Clb=5.2m/s t=-56.4C h=4.0% 403.30MHz Type=RS41-SG Details on http://radiosondy.info
KERNO2-14U24209012022-12-06 12:29:5550.1911-4.963151491516510Clb=4.5m/s t=-56.8C h=4.1% 403.30MHz Type=RS41-SG TxPastBurst=8h30m batt=2.7V Details on http://radiosondy.info
KERNO2-14U24209012022-12-06 12:29:1850.1916-4.963441682016441Clb=3.3m/s t=-56.6C h=4.0% 403.30MHz Type=RS41-SG Details on http://radiosondy.info
M7CWL-14U24209012022-12-06 12:28:4350.1923-4.963641641916376Clb=5.0m/s t=-56.8C h=4.1% 403.30MHz Type=RS41-SG Details on http://radiosondy.info
KERNO2-14U24209012022-12-06 12:28:4150.1923-4.963661621716371Clb=4.1m/s t=-56.8C h=4.1% 403.30MHz Type=RS41-SG Details on http://radiosondy.info
M7CWL-14U24209012022-12-06 12:28:0750.1929-4.963861411716314Clb=3.6m/s t=-57.1C h=4.2% 403.30MHz Type=RS41-SG TxPastBurst=8h30m batt=2.7V Details on http://radiosondy.info
KERNO2-14U24209012022-12-06 12:28:0450.193-4.963931441916307Clb=3.9m/s t=-57.1C h=4.2% 403.30MHz Type=RS41-SG batt=2.7V Details on http://radiosondy.info
M7CWL-14U24209012022-12-06 12:27:3650.1935-4.964251542416251Clb=2.9m/s t=-57.2C h=4.2% 403.30MHz Type=RS41-SG Details on http://radiosondy.info
KERNO2-14U24209012022-12-06 12:27:1950.194-4.964521562616218Clb=2.9m/s t=-57.4C h=4.3% 403.30MHz Type=RS41-SG Details on http://radiosondy.info
M7CWL-14U24209012022-12-06 12:27:0250.1944-4.964611802416190Clb=3.4m/s t=-57.4C h=4.3% 403.30MHz Type=RS41-SG Details on http://radiosondy.info
KERNO2-14U24209012022-12-06 12:26:4850.195-4.964821752816153Clb=4.7m/s t=-57.3C h=4.3% 403.30MHz Type=RS41-SG Details on http://radiosondy.info
KERNO2-14U24209012022-12-06 12:26:1250.1961-4.96511712616084Clb=4.1m/s t=-57.1C h=4.2% 403.30MHz Type=RS41-SG batt=2.6V Details on http://radiosondy.info
KERNO2-14U24209012022-12-06 12:25:3750.197-4.965471542416016Clb=4.6m/s t=-57.0C h=4.2% 403.30MHz Type=RS41-SG Details on http://radiosondy.info
KERNO2-14U24209012022-12-06 12:24:5650.1979-4.966091652215944Clb=3.1m/s t=-57.0C h=4.3% 403.30MHz Type=RS41-SG Details on http://radiosondy.info
KERNO2-14U24209012022-12-06 12:24:1850.1988-4.96651572215877Clb=3.1m/s t=-56.5C h=4.2% 403.30MHz Type=RS41-SG TxPastBurst=8h30m batt=2.6V Details on http://radiosondy.info
KERNO2-14U24209012022-12-06 12:23:4150.1995-4.967161442015807Clb=5.2m/s t=-56.5C h=4.1% 403.30MHz Type=RS41-SG Details on http://radiosondy.info
KERNO2-14U24209012022-12-06 12:23:0450.2-4.968121302015734Clb=2.8m/s t=-56.5C h=4.2% 403.30MHz Type=RS41-SG Details on http://radiosondy.info
KERNO2-14U24209012022-12-06 12:22:2350.2002-4.969251092015669Clb=4.6m/s t=-57.0C h=4.3% 403.30MHz Type=RS41-SG batt=2.6V Details on http://radiosondy.info
M7CWL-14U24209012022-12-06 12:21:5550.2005-4.970081211915620Clb=5.1m/s t=-57.2C h=4.4% 403.30MHz Type=RS41-SG batt=2.6V Details on http://radiosondy.info
KERNO2-14U24209012022-12-06 12:21:4150.2006-4.970461171915590Clb=4.8m/s t=-57.2C h=4.3% 403.30MHz Type=RS41-SG Details on http://radiosondy.info
M7CWL-14U24209012022-12-06 12:21:1950.2008-4.971021061515556Clb=3.2m/s t=-57.6C h=4.5% 403.30MHz Type=RS41-SG Details on http://radiosondy.info
KERNO2-14U24209012022-12-06 12:20:5850.2009-4.971361301515523Clb=4.5m/s t=-57.8C h=4.4% 403.30MHz Type=RS41-SG Details on http://radiosondy.info
M7CWL-14U24209012022-12-06 12:20:3950.201-4.971681161915493Clb=5.0m/s t=-58.0C h=4.5% 403.30MHz Type=RS41-SG Details on http://radiosondy.info
KERNO2-14U24209012022-12-06 12:20:1050.2011-4.972271091715455Clb=3.3m/s t=-58.1C h=4.7% 403.30MHz Type=RS41-SG batt=2.7V Details on http://radiosondy.info
M7CWL-14U24209012022-12-06 12:19:4450.2012-4.972671182815431Clb=2.7m/s t=-58.0C h=4.6% 403.30MHz Type=RS41-SG batt=2.7V Details on http://radiosondy.info
KERNO2-14U24209012022-12-06 12:18:5950.2013-4.97341101515381Clb=4.1m/s t=-58.1C h=4.6% 403.30MHz Type=RS41-SG Details on http://radiosondy.info
KERNO2-14U24209012022-12-06 12:18:1850.2015-4.974311041515317Clb=4.7m/s t=-58.3C h=4.6% 403.30MHz Type=RS41-SG Details on http://radiosondy.info
KERNO2-14U24209012022-12-06 12:17:4350.2018-4.974951541715249Clb=4.8m/s t=-58.7C h=4.8% 403.30MHz Type=RS41-SG TxPastBurst=8h30m batt=2.6V Details on http://radiosondy.info
KERNO2-14U24209012022-12-06 12:17:0850.2024-4.97531482215178Clb=2.9m/s t=-58.1C h=4.6% 403.30MHz Type=RS41-SG Details on http://radiosondy.info
KERNO2-14U24209012022-12-06 12:16:3550.2031-4.976031472215105Clb=3.7m/s t=-57.6C h=4.5% 403.30MHz Type=RS41-SG Details on http://radiosondy.info
KERNO2-14U24209012022-12-06 12:16:0050.2038-4.976951362615033Clb=5.2m/s t=-57.2C h=4.4% 403.30MHz Type=RS41-SG batt=2.6V Details on http://radiosondy.info
KERNO2-14U24209012022-12-06 12:15:5950.2045-4.978181363014962Clb=3.2m/s t=-57.1C h=4.3% 403.30MHz Type=RS41-SG Details on http://radiosondy.info
KERNO2-14U24209012022-12-06 12:15:5750.2052-4.979391273114895Clb=5.2m/s t=-57.2C h=4.4% 403.30MHz Type=RS41-SG Details on http://radiosondy.info
KERNO2-14U24209012022-12-06 12:15:5550.2059-4.981141223314821Clb=4.9m/s t=-56.8C h=4.5% 403.30MHz Type=RS41-SG batt=2.7V Details on http://radiosondy.info
M7CWL-14U24209012022-12-06 12:15:5450.2063-4.982891133514747Clb=4.0m/s t=-56.5C h=4.4% 403.30MHz Type=RS41-SG Details on http://radiosondy.info
M7CWL-14U24209012022-12-06 12:15:5350.2068-4.984831033514679Clb=3.3m/s t=-56.5C h=4.2% 403.30MHz Type=RS41-SG TxPastBurst=8h30m batt=2.6V Details on http://radiosondy.info
M7CWL-14U24209012022-12-06 12:15:5050.2073-4.986661102814615Clb=2.9m/s t=-56.8C h=4.4% 403.30MHz Type=RS41-SG Details on http://radiosondy.info
KERNO2-14U24209012022-12-06 12:15:4950.2081-4.988881063514532Clb=5.4m/s t=-56.4C h=4.3% 403.30MHz Type=RS41-SG Details on http://radiosondy.info
KERNO2-14U24209012022-12-06 12:15:4750.2087-4.990741163014464Clb=3.0m/s t=-56.4C h=4.5% 403.30MHz Type=RS41-SG Details on http://radiosondy.info
KERNO2-14U24209012022-12-06 12:15:4650.2091-4.99265942014380Clb=3.1m/s t=-56.7C h=4.4% 403.30MHz Type=RS41-SG batt=2.6V Details on http://radiosondy.info
KERNO2-14U24209012022-12-06 12:15:3950.2093-4.99392982214315Clb=4.8m/s t=-57.0C h=4.6% 403.30MHz Type=RS41-SG Details on http://radiosondy.info
KERNO2-14U24209012022-12-06 12:15:2750.2094-4.995311102614248Clb=3.3m/s t=-56.8C h=4.5% 403.30MHz Type=RS41-SG Details on http://radiosondy.info
KERNO2-14U24209012022-12-06 12:15:1050.2099-4.997091142214178Clb=4.1m/s t=-56.8C h=4.5% 403.30MHz Type=RS41-SG batt=2.7V Details on http://radiosondy.info
KERNO2-14U24209012022-12-06 12:14:5450.2103-4.998371152614114Clb=4.2m/s t=-56.7C h=4.6% 403.30MHz Type=RS41-SG Details on http://radiosondy.info
M7CWL-14U24209012022-12-06 12:14:2350.2108-4.999411113314058Clb=3.3m/s t=-57.0C h=4.7% 403.30MHz Type=RS41-SG Details on http://radiosondy.info
KERNO2-14U24209012022-12-06 12:14:1950.2109-4.999631153514050Clb=4.8m/s t=-57.0C h=4.7% 403.30MHz Type=RS41-SG Details on http://radiosondy.info
M7CWL-14U24209012022-12-06 12:13:5050.2116-5.0011283913990Clb=3.7m/s t=-56.5C h=4.5% 403.30MHz Type=RS41-SG batt=2.6V Details on http://radiosondy.info
KERNO2-14U24209012022-12-06 12:13:4150.2118-5.001461293913968Clb=4.3m/s t=-56.9C h=4.7% 403.30MHz Type=RS41-SG TxPastBurst=8h30m batt=2.6V Details on http://radiosondy.info
M7CWL-14U24209012022-12-06 12:13:2050.2124-5.002741263913928Clb=3.8m/s t=-56.8C h=4.7% 403.30MHz Type=RS41-SG Details on http://radiosondy.info
KERNO2-14U24209012022-12-06 12:13:0650.2127-5.003551274113907Clb=3.2m/s t=-56.7C h=4.8% 403.30MHz Type=RS41-SG Details on http://radiosondy.info
M7CWL-14U24209012022-12-06 12:12:4350.2133-5.004471323713874Clb=3.7m/s t=-56.5C h=4.6% 403.30MHz Type=RS41-SG Details on http://radiosondy.info
KERNO2-14U24209012022-12-06 12:12:2850.2138-5.005531273913844Clb=4.2m/s t=-56.5C h=4.7% 403.30MHz Type=RS41-SG Details on http://radiosondy.info
KERNO2-14U24209012022-12-06 12:11:4650.2146-5.007891193913773Clb=4.2m/s t=-56.7C h=4.8% 403.30MHz Type=RS41-SG batt=2.6V Details on http://radiosondy.info
KERNO2-14U24209012022-12-06 12:11:1050.2151-5.01015963313710Clb=3.7m/s t=-56.9C h=4.8% 403.30MHz Type=RS41-SG Details on http://radiosondy.info
KERNO2-14U24209012022-12-06 12:10:2950.2153-5.012181073513648Clb=4.0m/s t=-57.0C h=4.8% 403.30MHz Type=RS41-SG Details on http://radiosondy.info
M7CWL-14U24209012022-12-06 12:10:1950.2255-5.10757845010962Clb=3.1m/s t=-56.4C h=23.7% 403.30MHz Type=RS41-SG Details on http://radiosondy.info
KERNO2-14U24209012022-12-06 12:10:0850.2254-5.10833824810945Clb=4.8m/s t=-56.4C h=23.5% 403.30MHz Type=RS41-SG Details on http://radiosondy.info
M7CWL-14U24209012022-12-06 12:09:3450.2253-5.11043855210900Clb=3.4m/s t=-56.5C h=23.4% 403.30MHz Type=RS41-SG batt=2.7V Details on http://radiosondy.info
KERNO2-14U24209012022-12-06 12:09:2250.2253-5.11134895210880Clb=4.0m/s t=-56.4C h=23.7% 403.30MHz Type=RS41-SG TxPastBurst=8h30m batt=2.7V Details on http://radiosondy.info
KERNO2-14U24209012022-12-06 12:08:3750.2248-5.11499765410807Clb=4.3m/s t=-56.1C h=24.1% 403.30MHz Type=RS41-SG Details on http://radiosondy.info
KERNO2-14U24209012022-12-06 12:07:5350.2244-5.11824795610743Clb=3.3m/s t=-55.9C h=24.8% 403.30MHz Type=RS41-SG Details on http://radiosondy.info
KERNO2-14U24209012022-12-06 12:07:1350.2238-5.12154745010684Clb=3.9m/s t=-55.7C h=24.7% 403.30MHz Type=RS41-SG batt=2.7V Details on http://radiosondy.info
KERNO2-14U24209012022-12-06 12:06:4050.2232-5.12455744410623Clb=3.9m/s t=-55.5C h=24.9% 403.30MHz Type=RS41-SG Details on http://radiosondy.info
KERNO2-14U24209012022-12-06 12:06:0150.2229-5.12725784410567Clb=3.7m/s t=-55.7C h=24.4% 403.30MHz Type=RS41-SG Details on http://radiosondy.info
KERNO2-14U24209012022-12-06 12:05:2350.2224-5.12994734610510Clb=4.0m/s t=-55.7C h=19.6% 403.30MHz Type=RS41-SG batt=2.7V Details on http://radiosondy.info
KERNO2-14U24209012022-12-06 12:04:4250.2221-5.13273875410447Clb=3.7m/s t=-55.5C h=13.9% 403.30MHz Type=RS41-SG Details on http://radiosondy.info
M7CWL-14U24209012022-12-06 12:04:0150.2215-5.13571755610383Clb=3.6m/s t=-55.2C h=12.2% 403.30MHz Type=RS41-SG Details on http://radiosondy.info
KERNO2-14U24209012022-12-06 12:04:0050.2214-5.13592775610379Clb=2.9m/s t=-55.2C h=12.4% 403.30MHz Type=RS41-SG Details on http://radiosondy.info
M7CWL-14U24209012022-12-06 12:03:2550.2209-5.13885785910326Clb=3.2m/s t=-55.6C h=14.2% 403.30MHz Type=RS41-SG Details on http://radiosondy.info
KERNO2-14U24209012022-12-06 12:03:2150.2208-5.13928825910319Clb=4.6m/s t=-55.5C h=14.7% 403.30MHz Type=RS41-SG TxPastBurst=8h30m batt=2.7V Details on http://radiosondy.info
M7CWL-14U24209012022-12-06 12:02:5250.2201-5.14213685710273Clb=4.2m/s t=-55.3C h=15.9% 403.30MHz Type=RS41-SG batt=2.7V Details on http://radiosondy.info
KERNO2-14U24209012022-12-06 12:02:4750.22-5.1428705610262Clb=4.7m/s t=-55.3C h=16.4% 403.30MHz Type=RS41-SG Details on http://radiosondy.info
M7CWL-14U24209012022-12-06 12:02:2150.2194-5.14526706110215Clb=5.3m/s t=-55.1C h=17.7% 403.30MHz Type=RS41-SG Details on http://radiosondy.info
KERNO2-14U24209012022-12-06 12:02:1250.2192-5.14604715010199Clb=3.3m/s t=-55.1C h=18.3% 403.30MHz Type=RS41-SG Details on http://radiosondy.info
KERNO2-14U24209012022-12-06 12:01:3850.2184-5.14885745210135Clb=4.2m/s t=-55.0C h=21.5% 403.30MHz Type=RS41-SG batt=2.7V Details on http://radiosondy.info
KERNO2-14U24209012022-12-06 12:01:0550.2181-5.15197855010052Clb=5.0m/s t=-54.8C h=28.8% 403.30MHz Type=RS41-SG Details on http://radiosondy.info
KERNO2-14U24209012022-12-06 12:00:3050.2181-5.1551287569988Clb=4.0m/s t=-54.7C h=28.7% 403.30MHz Type=RS41-SG Details on http://radiosondy.info
KERNO2-14U24209012022-12-06 11:59:4650.218-5.1586389569923Clb=4.4m/s t=-54.2C h=30.5% 403.30MHz Type=RS41-SG batt=2.7V Details on http://radiosondy.info
KERNO2-14U24209012022-12-06 11:59:0250.2179-5.1620891599862Clb=4.0m/s t=-53.8C h=36.3% 403.30MHz Type=RS41-SG Details on http://radiosondy.info
KERNO2-14U24209012022-12-06 11:58:2350.2179-5.1658988659791Clb=3.2m/s t=-53.5C h=36.2% 403.30MHz Type=RS41-SG Details on http://radiosondy.info
KERNO2-14U24209012022-12-06 11:57:3950.2177-5.1698887659724Clb=4.0m/s t=-53.0C h=34.8% 403.30MHz Type=RS41-SG TxPastBurst=8h30m batt=2.7V Details on http://radiosondy.info
KERNO2-14U24209012022-12-06 11:56:5950.2175-5.1743689699653Clb=3.0m/s t=-52.6C h=34.7% 403.30MHz Type=RS41-SG Details on http://radiosondy.info
M7CWL-14U24209012022-12-06 11:56:5750.2175-5.1746188709649Clb=4.2m/s t=-52.6C h=34.9% 403.30MHz Type=RS41-SG Details on http://radiosondy.info
KERNO2-14U24209012022-12-06 11:56:2650.2172-5.1787181679585Clb=4.6m/s t=-52.2C h=34.2% 403.30MHz Type=RS41-SG Details on http://radiosondy.info
M7CWL-14U24209012022-12-06 11:56:2550.2172-5.1787181699585Clb=4.6m/s t=-52.2C h=34.2% 403.30MHz Type=RS41-SG TxPastBurst=8h30m batt=2.7V Details on http://radiosondy.info
M7CWL-14U24209012022-12-06 11:55:5550.217-5.1825982659525Clb=3.8m/s t=-51.8C h=34.4% 403.30MHz Type=RS41-SG Details on http://radiosondy.info
KERNO2-14U24209012022-12-06 11:55:5350.2169-5.1828486639521Clb=3.5m/s t=-51.8C h=34.5% 403.30MHz Type=RS41-SG batt=2.7V Details on http://radiosondy.info
M7CWL-14U24209012022-12-06 11:55:2150.2169-5.1863192659468Clb=3.0m/s t=-51.4C h=33.6% 403.30MHz Type=RS41-SG Details on http://radiosondy.info
KERNO2-14U24209012022-12-06 11:55:1450.2169-5.187386659453Clb=3.2m/s t=-51.6C h=33.8% 403.30MHz Type=RS41-SG Details on http://radiosondy.info
KERNO2-14U24209012022-12-06 11:54:3650.217-5.1912787709390Clb=3.9m/s t=-50.9C h=32.3% 403.30MHz Type=RS41-SG Details on http://radiosondy.info
KERNO2-14U24209012022-12-06 11:53:5650.2169-5.1955585619295Clb=5.8m/s t=-50.1C h=30.8% 403.30MHz Type=RS41-SG batt=2.7V Details on http://radiosondy.info
KERNO2-14U24209012022-12-06 11:53:0950.2168-5.1998582709201Clb=4.3m/s t=-49.2C h=27.7% 403.30MHz Type=RS41-SG Details on http://radiosondy.info
KERNO2-14U24209012022-12-06 11:52:3050.2166-5.204288729138Clb=3.2m/s t=-48.6C h=28.1% 403.30MHz Type=RS41-SG Details on http://radiosondy.info
KERNO2-14U24209012022-12-06 11:51:5550.2166-5.2086688709073Clb=4.3m/s t=-48.6C h=29.6% 403.30MHz Type=RS41-SG TxPastBurst=8h30m batt=2.7V Details on http://radiosondy.info
KERNO2-14U24209012022-12-06 11:51:4550.2165-5.2135392679006Clb=4.0m/s t=-48.3C h=29.9% 403.30MHz Type=RS41-SG Details on http://radiosondy.info
KERNO2-14U24209012022-12-06 11:51:2950.2165-5.2176594698945Clb=4.2m/s t=-47.8C h=28.4% 403.30MHz Type=RS41-SG Details on http://radiosondy.info
M7CWL-14U24209012022-12-06 11:51:0650.2165-5.2215994708886Clb=4.7m/s t=-47.4C h=26.3% 403.30MHz Type=RS41-SG batt=2.7V Details on http://radiosondy.info
M7CWL-14U24209012022-12-06 11:50:5150.2166-5.2256794708829Clb=3.9m/s t=-46.9C h=25.9% 403.30MHz Type=RS41-SG Details on http://radiosondy.info
KERNO2-14U24209012022-12-06 11:50:4850.2167-5.2267597708813Clb=4.2m/s t=-46.8C h=25.5% 403.30MHz Type=RS41-SG Details on http://radiosondy.info
M7CWL-14U24209012022-12-06 11:50:4750.2167-5.2297593728766Clb=4.7m/s t=-46.4C h=25.1% 403.30MHz Type=RS41-SG Details on http://radiosondy.info
KERNO2-14U24209012022-12-06 11:50:4550.2167-5.2311392748747Clb=2.9m/s t=-46.2C h=24.5% 403.30MHz Type=RS41-SG Details on http://radiosondy.info
M7CWL-14U24209012022-12-06 11:50:3050.2168-5.2339593748709Clb=4.2m/s t=-45.9C h=23.2% 403.30MHz Type=RS41-SG batt=2.7V Details on http://radiosondy.info
KERNO2-14U24209012022-12-06 11:50:2350.2168-5.2356992748687Clb=2.6m/s t=-45.6C h=23.3% 403.30MHz Type=RS41-SG batt=2.7V Details on http://radiosondy.info
KERNO2-14U24209012022-12-06 11:50:0250.2168-5.2409190748619Clb=3.2m/s t=-45.1C h=21.6% 403.30MHz Type=RS41-SG Details on http://radiosondy.info
KERNO2-14U24209012022-12-06 11:49:5950.2169-5.2454896728561Clb=3.6m/s t=-44.6C h=20.7% 403.30MHz Type=RS41-SG Details on http://radiosondy.info
KERNO2-14U24209012022-12-06 11:49:5450.2172-5.2499598708503Clb=3.0m/s t=-44.1C h=21.3% 403.30MHz Type=RS41-SG TxPastBurst=8h30m batt=2.7V Details on http://radiosondy.info
KERNO2-14U24209012022-12-06 11:49:4950.2175-5.2548392728438Clb=3.0m/s t=-43.7C h=22.2% 403.30MHz Type=RS41-SG Details on http://radiosondy.info
KERNO2-14U24209012022-12-06 11:49:4350.2177-5.2592991728384Clb=3.4m/s t=-43.5C h=22.3% 403.30MHz Type=RS41-SG Details on http://radiosondy.info
KERNO2-14U24209012022-12-06 11:49:2550.218-5.2642997748305Clb=4.3m/s t=-42.9C h=22.1% 403.30MHz Type=RS41-SG batt=2.7V Details on http://radiosondy.info
KERNO2-14U24209012022-12-06 11:49:0650.2183-5.2688596768239Clb=4.2m/s t=-42.4C h=20.9% 403.30MHz Type=RS41-SG Details on http://radiosondy.info
M7CWL-14U24209012022-12-06 11:49:0050.2184-5.2709191748212Clb=4.0m/s t=-42.1C h=19.3% 403.30MHz Type=RS41-SG Details on http://radiosondy.info
KERNO2-14U24209012022-12-06 11:48:5750.2185-5.2735297728177Clb=5.2m/s t=-41.8C h=16.7% 403.30MHz Type=RS41-SG Details on http://radiosondy.info
M7CWL-14U24209012022-12-06 11:48:5350.2185-5.2754589708148Clb=3.4m/s t=-41.5C h=14.1% 403.30MHz Type=RS41-SG Details on http://radiosondy.info
KERNO2-14U24209012022-12-06 11:48:5050.2186-5.2779193728113Clb=4.2m/s t=-41.4C h=12.8% 403.30MHz Type=RS41-SG batt=2.7V Details on http://radiosondy.info
KERNO2-14U24209012022-12-06 11:48:4950.2187-5.2829390698035Clb=3.2m/s t=-41.1C h=11.0% 403.30MHz Type=RS41-SG Details on http://radiosondy.info
KERNO2-14U24209012022-12-06 11:48:4850.2188-5.2871899637959Clb=4.5m/s t=-40.9C h=9.2% 403.30MHz Type=RS41-SG Details on http://radiosondy.info
KERNO2-14U24209012022-12-06 11:48:4750.2193-5.29088111577890Clb=3.6m/s t=-40.5C h=8.3% 403.30MHz Type=RS41-SG TxPastBurst=8h30m batt=2.7V Details on http://radiosondy.info
KERNO2-14U24209012022-12-06 11:48:4550.2197-5.29439105617819Clb=3.1m/s t=-40.4C h=14.5% 403.30MHz Type=RS41-SG Details on http://radiosondy.info
KERNO2-14U24209012022-12-06 11:48:4450.2201-5.2981384447758Clb=6.5m/s t=-40.3C h=25.8% 403.30MHz Type=RS41-SG Details on http://radiosondy.info
KERNO2-14U24209012022-12-06 11:48:4350.2204-5.30076101337655Clb=4.2m/s t=-39.5C h=44.4% 403.30MHz Type=RS41-SG batt=2.7V Details on http://radiosondy.info
KERNO2-14U24209012022-12-06 11:48:4250.2206-5.302995357575Clb=4.7m/s t=-38.9C h=55.6% 403.30MHz Type=RS41-SG Details on http://radiosondy.info
KERNO2-14U24209012022-12-06 11:48:4050.2209-5.3049995357503Clb=4.3m/s t=-38.5C h=55.0% 403.30MHz Type=RS41-SG Details on http://radiosondy.info
KERNO2-14U24209012022-12-06 11:48:3950.2208-5.307585377430Clb=3.4m/s t=-37.8C h=55.6% 403.30MHz Type=RS41-SG batt=2.7V Details on http://radiosondy.info
KERNO2-14U24209012022-12-06 11:48:3850.2207-5.3097487357370Clb=2.5m/s t=-37.4C h=58.8% 403.30MHz Type=RS41-SG Details on http://radiosondy.info
KERNO2-14U24209012022-12-06 11:48:3750.2205-5.3119791357311Clb=4.1m/s t=-37.0C h=55.1% 403.30MHz Type=RS41-SG Details on http://radiosondy.info
M7CWL-14U24209012022-12-06 11:48:3650.2205-5.3127579377288Clb=3.9m/s t=-36.8C h=56.5% 403.30MHz Type=RS41-SG Details on http://radiosondy.info
KERNO2-14U24209012022-12-06 11:48:3550.2203-5.314279377248Clb=4.2m/s t=-36.5C h=59.6% 403.30MHz Type=RS41-SG TxPastBurst=8h30m batt=2.9V Details on http://radiosondy.info
M7CWL-14U24209012022-12-06 11:48:3050.22-5.3155176377214Clb=4.5m/s t=-36.2C h=60.9% 403.30MHz Type=RS41-SG Details on http://radiosondy.info
KERNO2-14U24209012022-12-06 11:48:2150.2199-5.3165179397190Clb=3.5m/s t=-36.0C h=61.3% 403.30MHz Type=RS41-SG Details on http://radiosondy.info
KERNO2-14U24209012022-12-06 11:47:4750.2196-5.3188774417130Clb=3.5m/s t=-35.5C h=61.6% 403.30MHz Type=RS41-SG Details on http://radiosondy.info
KERNO2-14U24209012022-12-06 11:47:1250.2194-5.3212574377049Clb=4.9m/s t=-34.9C h=59.0% 403.30MHz Type=RS41-SG batt=2.9V Details on http://radiosondy.info
KERNO2-14U24209012022-12-06 11:46:3950.2193-5.3235197376975Clb=3.8m/s t=-34.3C h=50.0% 403.30MHz Type=RS41-SG Details on http://radiosondy.info
KERNO2-14U24209012022-12-06 11:46:0650.2193-5.3261692376911Clb=3.4m/s t=-33.8C h=53.9% 403.30MHz Type=RS41-SG Details on http://radiosondy.info
KERNO2-14U24209012022-12-06 11:45:3550.2193-5.328594416854Clb=3.6m/s t=-33.5C h=54.2% 403.30MHz Type=RS41-SG batt=2.9V Details on http://radiosondy.info
KERNO2-14U24209012022-12-06 11:45:0450.2193-5.3310395376794Clb=3.2m/s t=-32.9C h=53.6% 403.30MHz Type=RS41-SG Details on http://radiosondy.info
KERNO2-14U24209012022-12-06 11:44:2750.2193-5.333683356714Clb=3.9m/s t=-32.2C h=47.5% 403.30MHz Type=RS41-SG Details on http://radiosondy.info
M7CWL-14U24209012022-12-06 11:44:1050.2192-5.3347384356682Clb=4.5m/s t=-32.1C h=31.7% 403.30MHz Type=RS41-SG batt=2.9V Details on http://radiosondy.info
KERNO2-14U24209012022-12-06 11:43:5750.2192-5.3358175356648Clb=3.6m/s t=-31.9C h=34.7% 403.30MHz Type=RS41-SG TxPastBurst=8h30m batt=2.9V Details on http://radiosondy.info
M7CWL-14U24209012022-12-06 11:43:4250.219-5.3367578336621Clb=3.4m/s t=-31.8C h=30.4% 403.30MHz Type=RS41-SG Details on http://radiosondy.info
KERNO2-14U24209012022-12-06 11:43:2550.2188-5.3379178336587Clb=2.3m/s t=-31.5C h=28.2% 403.30MHz Type=RS41-SG Details on http://radiosondy.info
M7CWL-14U24209012022-12-06 11:43:0950.2187-5.338978376555Clb=4.3m/s t=-31.3C h=27.6% 403.30MHz Type=RS41-SG Details on http://radiosondy.info
KERNO2-14U24209012022-12-06 11:42:4750.2185-5.3402371316520Clb=3.9m/s t=-31.4C h=36.8% 403.30MHz Type=RS41-SG Details on http://radiosondy.info
M7CWL-14U24209012022-12-06 11:42:3250.2182-5.3409855206499Clb=4.3m/s t=-31.2C h=37.5% 403.30MHz Type=RS41-SG TxPastBurst=8h30m batt=2.9V Details on http://radiosondy.info
KERNO2-14U24209012022-12-06 11:42:1250.2178-5.3419155356450Clb=3.1m/s t=-30.9C h=39.9% 403.30MHz Type=RS41-SG batt=2.7V Details on http://radiosondy.info
KERNO2-14U24209012022-12-06 11:41:4150.2175-5.3438971266368Clb=6.1m/s t=-30.3C h=42.2% 403.30MHz Type=RS41-SG Details on http://radiosondy.info
KERNO2-14U24209012022-12-06 11:41:0750.2173-5.3454974206276Clb=4.0m/s t=-29.5C h=36.1% 403.30MHz Type=RS41-SG Details on http://radiosondy.info
KERNO2-14U24209012022-12-06 11:40:3750.2173-5.3466796136183Clb=3.7m/s t=-28.9C h=16.1% 403.30MHz Type=RS41-SG batt=2.9V Details on http://radiosondy.info
KERNO2-14U24209012022-12-06 11:40:0950.2174-5.3474550156121Clb=2.7m/s t=-28.3C h=12.5% 403.30MHz Type=RS41-SG Details on http://radiosondy.info
KERNO2-14U24209012022-12-06 11:39:4750.2175-5.34846118116042Clb=5.4m/s t=-27.7C h=12.9% 403.30MHz Type=RS41-SG Details on http://radiosondy.info
KERNO2-14U24209012022-12-06 11:39:3550.2178-5.34907133135975Clb=3.4m/s t=-27.1C h=12.1% 403.30MHz Type=RS41-SG TxPastBurst=8h30m batt=2.7V Details on http://radiosondy.info
KERNO2-14U24209012022-12-06 11:39:1750.2182-5.34941139135920Clb=4.6m/s t=-26.6C h=9.5% 403.30MHz Type=RS41-SG Details on http://radiosondy.info
M7CWL-14U24209012022-12-06 11:39:0650.2184-5.34943215115878Clb=3.9m/s t=-26.3C h=10.2% 403.30MHz Type=RS41-SG Details on http://radiosondy.info
KERNO2-14U24209012022-12-06 11:38:5750.2187-5.3495417895831Clb=3.5m/s t=-26.0C h=12.9% 403.30MHz Type=RS41-SG Details on http://radiosondy.info
M7CWL-14U24209012022-12-06 11:38:5150.2188-5.3496714375807Clb=4.2m/s t=-25.8C h=12.5% 403.30MHz Type=RS41-SG Details on http://radiosondy.info
KERNO2-14U24209012022-12-06 11:38:4150.2189-5.349913895774Clb=3.6m/s t=-25.6C h=12.5% 403.30MHz Type=RS41-SG batt=2.9V Details on http://radiosondy.info
M7CWL-14U24209012022-12-06 11:38:3750.219-5.34995156115755Clb=2.8m/s t=-25.4C h=12.5% 403.30MHz Type=RS41-SG batt=2.7V Details on http://radiosondy.info
KERNO2-14U24209012022-12-06 11:38:2550.219-5.3502615395712Clb=5.0m/s t=-25.0C h=12.6% 403.30MHz Type=RS41-SG Details on http://radiosondy.info
M7CWL-14U24209012022-12-06 11:38:2250.2191-5.35039114135691Clb=4.3m/s t=-24.8C h=13.4% 403.30MHz Type=RS41-SG Details on http://radiosondy.info
KERNO2-14U24209012022-12-06 11:38:0750.2191-5.3507421595625Clb=2.2m/s t=-24.2C h=13.5% 403.30MHz Type=RS41-SG Details on http://radiosondy.info
KERNO2-14U24209012022-12-06 11:37:5150.2191-5.3508873115556Clb=4.0m/s t=-23.6C h=13.1% 403.30MHz Type=RS41-SG batt=2.9V Details on http://radiosondy.info
KERNO2-14U24209012022-12-06 11:37:3750.219-5.351293075457Clb=4.4m/s t=-22.7C h=12.6% 403.30MHz Type=RS41-SG Details on http://radiosondy.info
KERNO2-14U24209012022-12-06 11:37:1850.219-5.3514512395369Clb=4.5m/s t=-22.0C h=11.7% 403.30MHz Type=RS41-SG Details on http://radiosondy.info
KERNO2-14U24209012022-12-06 11:37:0050.2189-5.3518475135286Clb=2.9m/s t=-21.1C h=12.4% 403.30MHz Type=RS41-SG TxPastBurst=8h30m batt=2.9V Details on http://radiosondy.info
KERNO2-14U24209012022-12-06 11:36:4250.219-5.3526110675220Clb=4.0m/s t=-20.6C h=11.2% 403.30MHz Type=RS41-SG Details on http://radiosondy.info
KERNO2-14U24209012022-12-06 11:36:2950.2191-5.3530310795144Clb=5.4m/s t=-20.0C h=7.7% 403.30MHz Type=RS41-SG Details on http://radiosondy.info
KERNO2-14U24209012022-12-06 11:36:2850.2191-5.3536179135086Clb=3.0m/s t=-19.7C h=6.7% 403.30MHz Type=RS41-SG batt=2.9V Details on http://radiosondy.info
KERNO2-14U24209012022-12-06 11:36:2750.2189-5.354544795019Clb=5.8m/s t=-19.5C h=4.7% 403.30MHz Type=RS41-SG Details on http://radiosondy.info
KERNO2-14U24209012022-12-06 11:36:2650.2186-5.3546335374934Clb=2.8m/s t=-19.3C h=5.3% 403.30MHz Type=RS41-SG Details on http://radiosondy.info
M7CWL-14U24209012022-12-06 11:36:2550.2187-5.35442309134871Clb=6.5m/s t=-19.1C h=7.3% 403.30MHz Type=RS41-SG Details on http://radiosondy.info
KERNO2-14U24209012022-12-06 11:36:2450.2186-5.35392282114776Clb=4.8m/s t=-18.6C h=7.0% 403.30MHz Type=RS41-SG Details on http://radiosondy.info
KERNO2-14U24209012022-12-06 11:36:2150.2184-5.3533325154699Clb=3.3m/s t=-18.2C h=8.0% 403.30MHz Type=RS41-SG Details on http://radiosondy.info
KERNO2-14U24209012022-12-06 11:36:1750.218-5.353522174630Clb=5.6m/s t=-17.8C h=8.8% 403.30MHz Type=RS41-SG TxPastBurst=8h30m batt=2.9V Details on http://radiosondy.info
KERNO2-14U24209012022-12-06 11:36:0050.2174-5.353896134551Clb=3.5m/s t=-17.3C h=9.7% 403.30MHz Type=RS41-SG Details on http://radiosondy.info
KERNO2-14U24209012022-12-06 11:35:3350.217-5.35409312114481Clb=4.4m/s t=-17.1C h=10.5% 403.30MHz Type=RS41-SG Details on http://radiosondy.info
KERNO2-14U24209012022-12-06 11:35:0750.2167-5.3541235874414Clb=4.3m/s t=-16.8C h=11.4% 403.30MHz Type=RS41-SG batt=2.9V Details on http://radiosondy.info
KERNO2-14U24209012022-12-06 11:34:3650.2166-5.35382269114343Clb=4.1m/s t=-16.2C h=13.6% 403.30MHz Type=RS41-SG Details on http://radiosondy.info
KERNO2-14U24209012022-12-06 11:34:0550.2163-5.35338349114280Clb=6.5m/s t=-15.8C h=14.7% 403.30MHz Type=RS41-SG Details on http://radiosondy.info
M7CWL-14U24209012022-12-06 11:33:5750.2161-5.35323319114255Clb=6.3m/s t=-15.7C h=16.1% 403.30MHz Type=RS41-SG TxPastBurst=8h30m batt=2.9V Details on http://radiosondy.info
KERNO2-14U24209012022-12-06 11:33:3650.216-5.35306300134194Clb=4.7m/s t=-15.2C h=17.1% 403.30MHz Type=RS41-SG batt=2.9V Details on http://radiosondy.info
M7CWL-14U24209012022-12-06 11:33:3150.2159-5.35293331134179Clb=4.0m/s t=-15.1C h=18.4% 403.30MHz Type=RS41-SG Details on http://radiosondy.info
KERNO2-14U24209012022-12-06 11:33:0750.2155-5.3526827114128Clb=3.2m/s t=-14.7C h=16.5% 403.30MHz Type=RS41-SG Details on http://radiosondy.info
M7CWL-14U24209012022-12-06 11:33:0350.2155-5.3527121114122Clb=2.5m/s t=-14.7C h=16.3% 403.30MHz Type=RS41-SG Details on http://radiosondy.info
KERNO2-14U24209012022-12-06 11:32:3550.2155-5.35253187114068Clb=5.1m/s t=-14.5C h=19.1% 403.30MHz Type=RS41-SG Details on http://radiosondy.info
M7CWL-14U24209012022-12-06 11:32:3350.2155-5.35253203114062Clb=6.2m/s t=-14.4C h=19.1% 403.30MHz Type=RS41-SG batt=2.9V Details on http://radiosondy.info
KERNO2-14U24209012022-12-06 11:32:0650.2154-5.35215358113983Clb=3.6m/s t=-13.6C h=19.5% 403.30MHz Type=RS41-SG TxPastBurst=8h30m batt=2.9V Details on http://radiosondy.info
KERNO2-14U24209012022-12-06 11:31:4850.2153-5.3522330493914Clb=4.5m/s t=-13.1C h=20.9% 403.30MHz Type=RS41-SG Details on http://radiosondy.info
KERNO2-14U24209012022-12-06 11:31:3250.2154-5.3525558133851Clb=3.6m/s t=-12.5C h=19.8% 403.30MHz Type=RS41-SG Details on http://radiosondy.info
KERNO2-14U24209012022-12-06 11:31:1650.2149-5.3527659113774Clb=3.9m/s t=-11.8C h=18.9% 403.30MHz Type=RS41-SG batt=2.9V Details on http://radiosondy.info
KERNO2-14U24209012022-12-06 11:31:1350.2147-5.3527917113703Clb=3.8m/s t=-11.1C h=17.8% 403.30MHz Type=RS41-SG Details on http://radiosondy.info
KERNO2-14U24209012022-12-06 11:31:1250.2146-5.35288350153637Clb=3.9m/s t=-11.1C h=31.0% 403.30MHz Type=RS41-SG Details on http://radiosondy.info
KERNO2-14U24209012022-12-06 11:31:1150.2141-5.3533939113566Clb=4.0m/s t=-10.5C h=27.6% 403.30MHz Type=RS41-SG batt=2.9V Details on http://radiosondy.info
KERNO2-14U24209012022-12-06 11:31:1050.2141-5.353872113484Clb=6.2m/s t=-9.9C h=26.1% 403.30MHz Type=RS41-SG Details on http://radiosondy.info
KERNO2-14U24209012022-12-06 11:31:0450.2142-5.35386289113413Clb=5.1m/s t=-9.1C h=25.4% 403.30MHz Type=RS41-SG Details on http://radiosondy.info
M7CWL-14U24209012022-12-06 11:30:5550.2141-5.35366349113368Clb=3.6m/s t=-8.7C h=25.6% 403.30MHz Type=RS41-SG Details on http://radiosondy.info
KERNO2-14U24209012022-12-06 11:30:4350.214-5.3538823273326Clb=4.5m/s t=-8.4C h=26.5% 403.30MHz Type=RS41-SG TxPastBurst=8h30m batt=2.9V Details on http://radiosondy.info
M7CWL-14U24209012022-12-06 11:30:3250.214-5.353721093296Clb=4.6m/s t=-8.2C h=25.6% 403.30MHz Type=RS41-SG batt=2.9V Details on http://radiosondy.info
KERNO2-14U24209012022-12-06 11:30:1550.214-5.3537315993238Clb=4.1m/s t=-7.9C h=37.6% 403.30MHz Type=RS41-SG Details on http://radiosondy.info
M7CWL-14U24209012022-12-06 11:30:1050.2141-5.3538113973222Clb=4.8m/s t=-7.7C h=37.8% 403.30MHz Type=RS41-SG Details on http://radiosondy.info
KERNO2-14U24209012022-12-06 11:29:4850.2142-5.35366296113157Clb=7.4m/s t=-7.3C h=47.1% 403.30MHz Type=RS41-SG Details on http://radiosondy.info
KERNO2-14U24209012022-12-06 11:29:2350.2139-5.35388114113083Clb=4.6m/s t=-6.7C h=47.4% 403.30MHz Type=RS41-SG batt=2.9V Details on http://radiosondy.info
KERNO2-14U24209012022-12-06 11:28:5350.2138-5.3538159113014Clb=3.8m/s t=-6.1C h=48.7% 403.30MHz Type=RS41-SG Details on http://radiosondy.info
KERNO2-14U24209012022-12-06 11:28:2850.2137-5.353899492938Clb=4.8m/s t=-5.5C h=48.0% 403.30MHz Type=RS41-SG Details on http://radiosondy.info
KERNO2-14U24209012022-12-06 11:28:0350.2137-5.35387178112850Clb=4.0m/s t=-4.7C h=46.3% 403.30MHz Type=RS41-SG batt=2.9V Details on http://radiosondy.info
KERNO2-14U24209012022-12-06 11:27:4650.2138-5.3539174132773Clb=4.6m/s t=-5.0C h=56.6% 403.30MHz Type=RS41-SG Details on http://radiosondy.info
KERNO2-14U24209012022-12-06 11:27:3150.2143-5.3538922992692Clb=6.4m/s t=-4.7C h=53.3% 403.30MHz Type=RS41-SG Details on http://radiosondy.info
KERNO2-14U24209012022-12-06 11:27:1550.2143-5.35357145112619Clb=4.2m/s t=-3.9C h=42.5% 403.30MHz Type=RS41-SG TxPastBurst=8h30m batt=2.9V Details on http://radiosondy.info
M7CWL-14U24209012022-12-06 11:27:0450.2143-5.35337266112576Clb=5.2m/s t=-3.6C h=37.3% 403.30MHz Type=RS41-SG Details on http://radiosondy.info
KERNO2-14U24209012022-12-06 11:26:5850.2143-5.35302300112548Clb=4.0m/s t=-3.3C h=36.2% 403.30MHz Type=RS41-SG Details on http://radiosondy.info
M7CWL-14U24209012022-12-06 11:26:4950.2142-5.3529214372512Clb=4.1m/s t=-3.1C h=33.9% 403.30MHz Type=RS41-SG TxPastBurst=8h30m batt=2.9V Details on http://radiosondy.info
KERNO2-14U24209012022-12-06 11:26:4250.2144-5.3527322792480Clb=4.8m/s t=-2.9C h=33.8% 403.30MHz Type=RS41-SG Details on http://radiosondy.info
M7CWL-14U24209012022-12-06 11:26:3450.2144-5.35265193132435Clb=8.8m/s t=-2.6C h=36.4% 403.30MHz Type=RS41-SG Details on http://radiosondy.info
KERNO2-14U24209012022-12-06 11:26:2650.2147-5.35266222132381Clb=5.1m/s t=-2.1C h=33.6% 403.30MHz Type=RS41-SG batt=2.9V Details on http://radiosondy.info
M7CWL-14U24209012022-12-06 11:26:1950.2149-5.35266181152339Clb=3.9m/s t=-2.2C h=35.4% 403.30MHz Type=RS41-SG Details on http://radiosondy.info
KERNO2-14U24209012022-12-06 11:26:1850.2154-5.35243173132210Clb=7.5m/s t=-4.0C h=43.2% 403.30MHz Type=RS41-SG Details on http://radiosondy.info
KERNO2-14U24209012022-12-06 11:26:1750.2159-5.352496172116Clb=5.8m/s t=-5.6C 403.30MHz Type=RS41-SG batt=2.9V Details on http://radiosondy.info
KERNO2-14U24209012022-12-06 11:26:0350.2159-5.3522628872030Clb=4.4m/s t=-5.2C 403.30MHz Type=RS41-SG Details on http://radiosondy.info
KERNO2-14U24209012022-12-06 11:25:4050.2157-5.352131201951Clb=3.3m/s t=-4.5C 403.30MHz Type=RS41-SG Details on http://radiosondy.info
KERNO2-14U24209012022-12-06 11:25:1450.215-5.3520128571869Clb=4.6m/s 403.30MHz Type=RS41-SG TxPastBurst=8h30m batt=2.9V Details on http://radiosondy.info
KERNO2-14U24209012022-12-06 11:24:5050.2148-5.35171344111800Clb=2.9m/s calibration 94% 403.30MHz Type=RS41-SG Details on http://radiosondy.info
KERNO2-14U24209012022-12-06 11:24:2650.2145-5.3513411291711Clb=5.2m/s calibration 78% 403.30MHz Type=RS41 Details on http://radiosondy.info
M7CWL-14U24209012022-12-06 11:24:0550.2144-5.3508527191646Clb=4.9m/s t=-2.5C 403.30MHz Type=RS41-SG batt=2.9V Details on http://radiosondy.info
KERNO2-14U24209012022-12-06 11:24:0350.2144-5.3507723291636Clb=5.2m/s calibration 64% 403.30MHz Type=RS41 batt=2.9V Details on http://radiosondy.info
M7CWL-14U24209012022-12-06 11:23:4950.2146-5.35063161111570Clb=6.1m/s calibration 88% Type=RS41-SG Details on http://radiosondy.info
KERNO2-14U24209012022-12-06 11:23:4650.2147-5.35059217131554Clb=5.9m/s calibration 58% 403.30MHz Type=RS41 Details on http://radiosondy.info
M7CWL-14U24209012022-12-06 11:23:3450.215-5.35051168151492Clb=5.2m/s calibration 86% Type=RS41-SG Details on http://radiosondy.info
KERNO2-14U24209012022-12-06 11:23:3150.2151-5.35059156151470Clb=4.0m/s calibration 56% 403.30MHz Type=RS41 Details on http://radiosondy.info
M7CWL-14U24209012022-12-06 11:23:2050.2155-5.35044168191419Clb=4.3m/s calibration 86% Type=RS41-SG batt=2.9V Details on http://radiosondy.info
KERNO2-14U24209012022-12-06 11:23:1450.2156-5.35053182171398Clb=4.8m/s calibration 52% 403.30MHz Type=RS41 batt=2.9V Details on http://radiosondy.info
KERNO2-14U24209012022-12-06 11:21:5850.2179-5.3464826020979Clb=4.5m/s calibration 33% Type=RS41 Details on http://radiosondy.info
KERNO2-14U24209012022-12-06 11:21:5150.2182-5.3454326417903Clb=4.6m/s calibration 19% Type=RS41 Details on http://radiosondy.info
KERNO2-14U24209012022-12-06 11:21:4950.2185-5.3445523426817Clb=4.7m/s calibration 7% Type=RS41 batt=2.9V Details on http://radiosondy.info
M7CWL-14U24209012022-12-06 11:21:2450.2188-5.3425826820716Clb=6.7m/s calibration 66% Type=RS41-SG Details on http://radiosondy.info
M7CWL-14U24209012022-12-06 11:21:0350.2189-5.3414126524641Clb=3.9m/s calibration 37% Type=RS41 Details on http://radiosondy.info
M7CWL-14U24209012022-12-06 11:20:4450.2189-5.3400126824568Clb=5.1m/s calibration 7% Type=RS41 batt=2.9V Details on http://radiosondy.info